<?xml version="1.0" encoding="UTF-8" standalone="no" ?><gpx xmlns="http://www.topografix.com/GPX/1/1" xmlns:gpxx="http://www.garmin.com/xmlschemas/GpxExtensions/v3" xmlns:gpxtrkx="http://www.garmin.com/xmlschemas/TrackStatsExtension/v1" xmlns:wptx1="http://www.garmin.com/xmlschemas/WaypointExtension/v1" xmlns:gpxtpx="http://www.garmin.com/xmlschemas/TrackPointExtension/v1" creator="Alpha 300" version="1.1" xmlns:xsi="http://www.w3.org/2001/XMLSchema-instance" xsi:schemaLocation="http://www.topografix.com/GPX/1/1 http://www.topografix.com/GPX/1/1/gpx.xsd http://www.garmin.com/xmlschemas/GpxExtensions/v3 http://www8.garmin.com/xmlschemas/GpxExtensionsv3.xsd http://www.garmin.com/xmlschemas/TrackStatsExtension/v1 http://www8.garmin.com/xmlschemas/TrackStatsExtension.xsd http://www.garmin.com/xmlschemas/WaypointExtension/v1 http://www8.garmin.com/xmlschemas/WaypointExtensionv1.xsd http://www.garmin.com/xmlschemas/TrackPointExtension/v1 http://www.garmin.com/xmlschemas/TrackPointExtensionv1.xsd"><metadata><link href="http://www.garmin.com"><text>Garmin International</text></link><time>2026-04-25T15:05:09Z</time></metadata><trk><name>2026-04-25 17:50:45</name><extensions><gpxx:TrackExtension><gpxx:DisplayColor>Cyan</gpxx:DisplayColor></gpxx:TrackExtension><gpxtrkx:TrackStatsExtension><gpxtrkx:Distance>8393.000</gpxtrkx:Distance><gpxtrkx:TimerTime>23185</gpxtrkx:TimerTime><gpxtrkx:TotalElapsedTime>23185</gpxtrkx:TotalElapsedTime><gpxtrkx:MovingSpeed>0.985</gpxtrkx:MovingSpeed><gpxtrkx:MaxElevation>121.600</gpxtrkx:MaxElevation><gpxtrkx:MinElevation>81.600</gpxtrkx:MinElevation><gpxtrkx:Ascent>42.000</gpxtrkx:Ascent><gpxtrkx:Descent>7.000</gpxtrkx:Descent><gpxtrkx:Calories>265</gpxtrkx:Calories><gpxtrkx:AvgCadence>0</gpxtrkx:AvgCadence></gpxtrkx:TrackStatsExtension></extensions><trkseg><trkpt lat="59.0633410402" lon="30.0310243294"><ele>84.25</ele><time>2026-04-25T08:24:20Z</time></trkpt><trkpt lat="59.0633417945" lon="30.0310248323"><ele>84.25</ele><time>2026-04-25T08:24:21Z</time></trkpt><trkpt lat="59.0633166488" lon="30.0309936516"><ele>84.25</ele><time>2026-04-25T08:25:07Z</time></trkpt><trkpt lat="59.0633029863" lon="30.0310044643"><ele>84.73</ele><time>2026-04-25T08:25:45Z</time></trkpt><trkpt lat="59.0632881504" lon="30.0310218986"><ele>84.25</ele><time>2026-04-25T08:26:33Z</time></trkpt><trkpt lat="59.0632696263" lon="30.0309994351"><ele>84.73</ele><time>2026-04-25T08:27:25Z</time></trkpt><trkpt lat="59.0632734820" lon="30.0310007762"><ele>84.73</ele><time>2026-04-25T08:28:26Z</time></trkpt><trkpt lat="59.0632673632" lon="30.0310121756"><ele>84.73</ele><time>2026-04-25T08:29:15Z</time></trkpt><trkpt lat="59.0632780921" lon="30.0309931487"><ele>84.73</ele><time>2026-04-25T08:30:08Z</time></trkpt><trkpt lat="59.0632734820" lon="30.0309987646"><ele>84.73</ele><time>2026-04-25T08:30:59Z</time></trkpt><trkpt lat="59.0632593166" lon="30.0310062245"><ele>84.73</ele><time>2026-04-25T08:32:02Z</time></trkpt><trkpt lat="59.0632684529" lon="30.0310025364"><ele>85.21</ele><time>2026-04-25T08:32:40Z</time></trkpt><trkpt lat="59.0632893238" lon="30.0310165342"><ele>85.21</ele><time>2026-04-25T08:33:06Z</time></trkpt><trkpt lat="59.0633111168" lon="30.0309948251"><ele>84.73</ele><time>2026-04-25T08:33:39Z</time></trkpt><trkpt lat="59.0633130446" lon="30.0309943222"><ele>85.21</ele><time>2026-04-25T08:34:02Z</time></trkpt><trkpt lat="59.0633207560" lon="30.0310141873"><ele>85.21</ele><time>2026-04-25T08:34:31Z</time></trkpt><trkpt lat="59.0633274615" lon="30.0310432725"><ele>85.21</ele><time>2026-04-25T08:35:00Z</time></trkpt><trkpt lat="59.0633349214" lon="30.0310454518"><ele>85.21</ele><time>2026-04-25T08:35:27Z</time></trkpt><trkpt lat="59.0633622464" lon="30.0310241617"><ele>85.69</ele><time>2026-04-25T08:35:55Z</time></trkpt><trkpt lat="59.0633744840" lon="30.0310056377"><ele>85.21</ele><time>2026-04-25T08:36:31Z</time></trkpt><trkpt lat="59.0633644257" lon="30.0309846830"><ele>85.21</ele><time>2026-04-25T08:37:11Z</time></trkpt><trkpt lat="59.0633744840" lon="30.0310443621"><ele>85.21</ele><time>2026-04-25T08:37:33Z</time></trkpt><trkpt lat="59.0633722208" lon="30.0310535822"><ele>85.21</ele><time>2026-04-25T08:38:01Z</time></trkpt><trkpt lat="59.0633732267" lon="30.0310491398"><ele>84.73</ele><time>2026-04-25T08:38:33Z</time></trkpt><trkpt lat="59.0633817762" lon="30.0310492236"><ele>85.21</ele><time>2026-04-25T08:39:02Z</time></trkpt><trkpt lat="59.0633797646" lon="30.0310127623"><ele>85.21</ele><time>2026-04-25T08:39:27Z</time></trkpt><trkpt lat="59.0633976180" lon="30.0310133491"><ele>84.73</ele><time>2026-04-25T08:40:01Z</time></trkpt><trkpt lat="59.0633878950" lon="30.0310184620"><ele>85.21</ele><time>2026-04-25T08:40:24Z</time></trkpt><trkpt lat="59.0633400343" lon="30.0310105830"><ele>84.73</ele><time>2026-04-25T08:40:40Z</time></trkpt><trkpt lat="59.0633398667" lon="30.0310431886"><ele>85.21</ele><time>2026-04-25T08:40:59Z</time></trkpt><trkpt lat="59.0633453988" lon="30.0310512353"><ele>85.21</ele><time>2026-04-25T08:41:31Z</time></trkpt><trkpt lat="59.0633582231" lon="30.0310255866"><ele>84.73</ele><time>2026-04-25T08:42:11Z</time></trkpt><trkpt lat="59.0633873921" lon="30.0310327951"><ele>84.25</ele><time>2026-04-25T08:42:25Z</time></trkpt><trkpt lat="59.0634023957" lon="30.0310366508"><ele>84.73</ele><time>2026-04-25T08:42:45Z</time></trkpt><trkpt lat="59.0633883979" lon="30.0309995189"><ele>84.73</ele><time>2026-04-25T08:43:14Z</time></trkpt><trkpt lat="59.0633611567" lon="30.0309874490"><ele>84.73</ele><time>2026-04-25T08:43:44Z</time></trkpt><trkpt lat="59.0633421298" lon="30.0309490599"><ele>84.25</ele><time>2026-04-25T08:44:07Z</time></trkpt><trkpt lat="59.0633293893" lon="30.0309305359"><ele>84.73</ele><time>2026-04-25T08:44:30Z</time></trkpt><trkpt lat="59.0633279644" lon="30.0309956633"><ele>84.73</ele><time>2026-04-25T08:45:02Z</time></trkpt><trkpt lat="59.0633226838" lon="30.0310132653"><ele>84.73</ele><time>2026-04-25T08:45:29Z</time></trkpt><trkpt lat="59.0633482486" lon="30.0311294384"><ele>83.77</ele><time>2026-04-25T08:45:49Z</time></trkpt><trkpt lat="59.0633163974" lon="30.0310700946"><ele>84.25</ele><time>2026-04-25T08:46:09Z</time></trkpt><trkpt lat="59.0633055847" lon="30.0309676677"><ele>84.25</ele><time>2026-04-25T08:46:28Z</time></trkpt><trkpt lat="59.0633169841" lon="30.0309542567"><ele>84.73</ele><time>2026-04-25T08:46:53Z</time></trkpt><trkpt lat="59.0633291379" lon="30.0309567712"><ele>84.73</ele><time>2026-04-25T08:47:15Z</time></trkpt><trkpt lat="59.0633343346" lon="30.0309666619"><ele>84.25</ele><time>2026-04-25T08:47:38Z</time></trkpt><trkpt lat="59.0633276291" lon="30.0309970882"><ele>84.25</ele><time>2026-04-25T08:48:06Z</time></trkpt><trkpt lat="59.0633286349" lon="30.0310284365"><ele>85.21</ele><time>2026-04-25T08:48:34Z</time></trkpt><trkpt lat="59.0633705445" lon="30.0310768839"><ele>84.73</ele><time>2026-04-25T08:48:48Z</time></trkpt><trkpt lat="59.0633679461" lon="30.0310315378"><ele>85.21</ele><time>2026-04-25T08:49:12Z</time></trkpt><trkpt lat="59.0633619949" lon="30.0310123432"><ele>85.21</ele><time>2026-04-25T08:49:39Z</time></trkpt><trkpt lat="59.0633120388" lon="30.0310253352"><ele>85.21</ele><time>2026-04-25T08:49:59Z</time></trkpt><trkpt lat="59.0633801837" lon="30.0310398359"><ele>85.21</ele><time>2026-04-25T08:50:29Z</time></trkpt><trkpt lat="59.0634384379" lon="30.0310250837"><ele>85.21</ele><time>2026-04-25T08:50:35Z</time></trkpt><trkpt lat="59.0635221731" lon="30.0309480540"><ele>85.21</ele><time>2026-04-25T08:50:48Z</time></trkpt><trkpt lat="59.0636429563" lon="30.0308713596"><ele>84.73</ele><time>2026-04-25T08:51:09Z</time></trkpt><trkpt lat="59.0637139510" lon="30.0307845231"><ele>84.25</ele><time>2026-04-25T08:51:29Z</time></trkpt><trkpt lat="59.0637858678" lon="30.0306683499"><ele>84.73</ele><time>2026-04-25T08:51:53Z</time></trkpt><trkpt lat="59.0638765600" lon="30.0306598842"><ele>84.25</ele><time>2026-04-25T08:52:18Z</time></trkpt><trkpt lat="59.0639250912" lon="30.0305986963"><ele>84.25</ele><time>2026-04-25T08:52:45Z</time></trkpt><trkpt lat="59.0640547592" lon="30.0307081640"><ele>84.73</ele><time>2026-04-25T08:53:08Z</time></trkpt><trkpt lat="59.0642116684" lon="30.0306912325"><ele>84.73</ele><time>2026-04-25T08:53:31Z</time></trkpt><trkpt lat="59.0642439388" lon="30.0306134485"><ele>85.21</ele><time>2026-04-25T08:54:01Z</time></trkpt><trkpt lat="59.0643878561" lon="30.0305520929"><ele>85.21</ele><time>2026-04-25T08:54:22Z</time></trkpt><trkpt lat="59.0647415724" lon="30.0304651726"><ele>84.73</ele><time>2026-04-25T08:54:54Z</time></trkpt><trkpt lat="59.0649689734" lon="30.0304080918"><ele>85.69</ele><time>2026-04-25T08:55:13Z</time></trkpt><trkpt lat="59.0652774274" lon="30.0303017255"><ele>85.21</ele><time>2026-04-25T08:55:40Z</time></trkpt><trkpt lat="59.0655564610" lon="30.0302318204"><ele>85.21</ele><time>2026-04-25T08:56:04Z</time></trkpt><trkpt lat="59.0657419525" lon="30.0303263683"><ele>85.21</ele><time>2026-04-25T08:56:28Z</time></trkpt><trkpt lat="59.0658909827" lon="30.0302370172"><ele>86.18</ele><time>2026-04-25T08:56:53Z</time></trkpt><trkpt lat="59.0659857821" lon="30.0300833769"><ele>86.18</ele><time>2026-04-25T08:57:13Z</time></trkpt><trkpt lat="59.0661723632" lon="30.0299936906"><ele>86.18</ele><time>2026-04-25T08:57:34Z</time></trkpt><trkpt lat="59.0662936494" lon="30.0299790222"><ele>86.18</ele><time>2026-04-25T08:57:54Z</time></trkpt><trkpt lat="59.0664764587" lon="30.0298696384"><ele>86.18</ele><time>2026-04-25T08:58:17Z</time></trkpt><trkpt lat="59.0666768700" lon="30.0298435707"><ele>86.18</ele><time>2026-04-25T08:58:34Z</time></trkpt><trkpt lat="59.0667827334" lon="30.0297666248"><ele>86.18</ele><time>2026-04-25T08:58:57Z</time></trkpt><trkpt lat="59.0670145769" lon="30.0296587497"><ele>86.18</ele><time>2026-04-25T08:59:20Z</time></trkpt><trkpt lat="59.0671876632" lon="30.0296215340"><ele>86.18</ele><time>2026-04-25T08:59:41Z</time></trkpt><trkpt lat="59.0673787706" lon="30.0295959692"><ele>86.66</ele><time>2026-04-25T09:00:01Z</time></trkpt><trkpt lat="59.0675732307" lon="30.0294876751"><ele>86.66</ele><time>2026-04-25T09:00:22Z</time></trkpt><trkpt lat="59.0677622426" lon="30.0293959770"><ele>86.66</ele><time>2026-04-25T09:00:42Z</time></trkpt><trkpt lat="59.0680315532" lon="30.0293714181"><ele>86.66</ele><time>2026-04-25T09:01:10Z</time></trkpt><trkpt lat="59.0682680905" lon="30.0293110684"><ele>87.14</ele><time>2026-04-25T09:01:37Z</time></trkpt><trkpt lat="59.0685028676" lon="30.0291987509"><ele>86.66</ele><time>2026-04-25T09:02:06Z</time></trkpt><trkpt lat="59.0687996708" lon="30.0290974975"><ele>86.66</ele><time>2026-04-25T09:02:35Z</time></trkpt><trkpt lat="59.0690269880" lon="30.0289788935"><ele>87.14</ele><time>2026-04-25T09:02:54Z</time></trkpt><trkpt lat="59.0692760982" lon="30.0289074797"><ele>87.62</ele><time>2026-04-25T09:03:17Z</time></trkpt><trkpt lat="59.0695110429" lon="30.0288177934"><ele>87.62</ele><time>2026-04-25T09:03:39Z</time></trkpt><trkpt lat="59.0697366837" lon="30.0286528375"><ele>87.62</ele><time>2026-04-25T09:04:05Z</time></trkpt><trkpt lat="59.0699851234" lon="30.0286654942"><ele>87.14</ele><time>2026-04-25T09:04:28Z</time></trkpt><trkpt lat="59.0702989418" lon="30.0285407715"><ele>87.62</ele><time>2026-04-25T09:04:57Z</time></trkpt><trkpt lat="59.0705730300" lon="30.0284329802"><ele>88.10</ele><time>2026-04-25T09:05:19Z</time></trkpt><trkpt lat="59.0707817394" lon="30.0283502508"><ele>87.62</ele><time>2026-04-25T09:05:38Z</time></trkpt><trkpt lat="59.0710530616" lon="30.0282094348"><ele>87.62</ele><time>2026-04-25T09:06:03Z</time></trkpt><trkpt lat="59.0712864976" lon="30.0281401165"><ele>87.14</ele><time>2026-04-25T09:06:24Z</time></trkpt><trkpt lat="59.0715737455" lon="30.0281046610"><ele>87.62</ele><time>2026-04-25T09:06:48Z</time></trkpt><trkpt lat="59.0717707202" lon="30.0281056669"><ele>87.14</ele><time>2026-04-25T09:07:07Z</time></trkpt><trkpt lat="59.0719970316" lon="30.0280196685"><ele>87.62</ele><time>2026-04-25T09:07:30Z</time></trkpt><trkpt lat="59.0722664259" lon="30.0279373582"><ele>87.62</ele><time>2026-04-25T09:07:53Z</time></trkpt><trkpt lat="59.0725097526" lon="30.0278335903"><ele>87.14</ele><time>2026-04-25T09:08:19Z</time></trkpt><trkpt lat="59.0727329627" lon="30.0277188420"><ele>87.62</ele><time>2026-04-25T09:08:38Z</time></trkpt><trkpt lat="59.0729330387" lon="30.0276306644"><ele>88.58</ele><time>2026-04-25T09:08:58Z</time></trkpt><trkpt lat="59.0730438475" lon="30.0272591785"><ele>88.10</ele><time>2026-04-25T09:09:23Z</time></trkpt><trkpt lat="59.0730222221" lon="30.0269638840"><ele>88.58</ele><time>2026-04-25T09:09:48Z</time></trkpt><trkpt lat="59.0730287600" lon="30.0269719306"><ele>88.58</ele><time>2026-04-25T09:10:15Z</time></trkpt><trkpt lat="59.0730306879" lon="30.0269772951"><ele>88.58</ele><time>2026-04-25T09:10:31Z</time></trkpt><trkpt lat="59.0730169415" lon="30.0269130897"><ele>88.10</ele><time>2026-04-25T09:11:02Z</time></trkpt><trkpt lat="59.0729621239" lon="30.0263263565"><ele>88.58</ele><time>2026-04-25T09:11:33Z</time></trkpt><trkpt lat="59.0728879441" lon="30.0258057564"><ele>88.58</ele><time>2026-04-25T09:11:55Z</time></trkpt><trkpt lat="59.0728247445" lon="30.0254317559"><ele>88.10</ele><time>2026-04-25T09:12:12Z</time></trkpt><trkpt lat="59.0727881994" lon="30.0251096394"><ele>87.62</ele><time>2026-04-25T09:12:26Z</time></trkpt><trkpt lat="59.0727431886" lon="30.0249072164"><ele>87.62</ele><time>2026-04-25T09:12:35Z</time></trkpt><trkpt lat="59.0727085713" lon="30.0245898776"><ele>86.66</ele><time>2026-04-25T09:12:50Z</time></trkpt><trkpt lat="59.0726689249" lon="30.0242790766"><ele>87.62</ele><time>2026-04-25T09:13:08Z</time></trkpt><trkpt lat="59.0726385824" lon="30.0240308885"><ele>87.14</ele><time>2026-04-25T09:13:23Z</time></trkpt><trkpt lat="59.0726463776" lon="30.0240392704"><ele>88.58</ele><time>2026-04-25T09:13:58Z</time></trkpt><trkpt lat="59.0726691764" lon="30.0240397733"><ele>87.14</ele><time>2026-04-25T09:14:55Z</time></trkpt><trkpt lat="59.0728070587" lon="30.0238867197"><ele>87.62</ele><time>2026-04-25T09:15:15Z</time></trkpt><trkpt lat="59.0728971642" lon="30.0238138810"><ele>87.14</ele><time>2026-04-25T09:15:29Z</time></trkpt><trkpt lat="59.0729065519" lon="30.0238149706"><ele>87.14</ele><time>2026-04-25T09:15:30Z</time></trkpt><trkpt lat="59.0730038658" lon="30.0238369312"><ele>87.62</ele><time>2026-04-25T09:15:43Z</time></trkpt><trkpt lat="59.0730929654" lon="30.0238281302"><ele>87.14</ele><time>2026-04-25T09:15:58Z</time></trkpt><trkpt lat="59.0731503814" lon="30.0237728935"><ele>87.14</ele><time>2026-04-25T09:16:14Z</time></trkpt><trkpt lat="59.0732242260" lon="30.0237285532"><ele>87.14</ele><time>2026-04-25T09:16:26Z</time></trkpt><trkpt lat="59.0733158402" lon="30.0236911699"><ele>87.14</ele><time>2026-04-25T09:16:41Z</time></trkpt><trkpt lat="59.0734183509" lon="30.0236198399"><ele>87.14</ele><time>2026-04-25T09:16:58Z</time></trkpt><trkpt lat="59.0734795388" lon="30.0236088596"><ele>87.14</ele><time>2026-04-25T09:17:25Z</time></trkpt><trkpt lat="59.0735513717" lon="30.0235479232"><ele>87.14</ele><time>2026-04-25T09:17:36Z</time></trkpt><trkpt lat="59.0736418962" lon="30.0235074386"><ele>87.62</ele><time>2026-04-25T09:17:49Z</time></trkpt><trkpt lat="59.0737698879" lon="30.0234708935"><ele>87.62</ele><time>2026-04-25T09:18:03Z</time></trkpt><trkpt lat="59.0738613345" lon="30.0234210212"><ele>87.62</ele><time>2026-04-25T09:18:16Z</time></trkpt><trkpt lat="59.0739740711" lon="30.0233657844"><ele>87.14</ele><time>2026-04-25T09:18:32Z</time></trkpt><trkpt lat="59.0740764979" lon="30.0233002380"><ele>87.14</ele><time>2026-04-25T09:18:49Z</time></trkpt><trkpt lat="59.0741528571" lon="30.0232133176"><ele>86.18</ele><time>2026-04-25T09:19:09Z</time></trkpt><trkpt lat="59.0742647555" lon="30.0231249724"><ele>87.14</ele><time>2026-04-25T09:19:30Z</time></trkpt><trkpt lat="59.0743632428" lon="30.0231482740"><ele>87.14</ele><time>2026-04-25T09:19:50Z</time></trkpt><trkpt lat="59.0744554438" lon="30.0231285766"><ele>87.62</ele><time>2026-04-25T09:20:10Z</time></trkpt><trkpt lat="59.0745405201" lon="30.0229675602"><ele>87.62</ele><time>2026-04-25T09:20:25Z</time></trkpt><trkpt lat="59.0746509936" lon="30.0229149219"><ele>87.62</ele><time>2026-04-25T09:20:41Z</time></trkpt><trkpt lat="59.0747209825" lon="30.0229059532"><ele>88.10</ele><time>2026-04-25T09:20:56Z</time></trkpt><trkpt lat="59.0747181326" lon="30.0228732638"><ele>87.62</ele><time>2026-04-25T09:21:33Z</time></trkpt><trkpt lat="59.0747292805" lon="30.0228933804"><ele>87.62</ele><time>2026-04-25T09:22:31Z</time></trkpt><trkpt lat="59.0747477207" lon="30.0228927936"><ele>88.10</ele><time>2026-04-25T09:23:12Z</time></trkpt><trkpt lat="59.0747976769" lon="30.0228836574"><ele>87.62</ele><time>2026-04-25T09:23:43Z</time></trkpt><trkpt lat="59.0748684201" lon="30.0228761975"><ele>88.10</ele><time>2026-04-25T09:24:00Z</time></trkpt><trkpt lat="59.0749991778" lon="30.0228578411"><ele>87.62</ele><time>2026-04-25T09:24:19Z</time></trkpt><trkpt lat="59.0750614554" lon="30.0228748564"><ele>88.10</ele><time>2026-04-25T09:24:38Z</time></trkpt><trkpt lat="59.0751135908" lon="30.0228173565"><ele>88.10</ele><time>2026-04-25T09:24:55Z</time></trkpt><trkpt lat="59.0751737729" lon="30.0227744412"><ele>88.58</ele><time>2026-04-25T09:25:16Z</time></trkpt><trkpt lat="59.0752836596" lon="30.0226715952"><ele>87.62</ele><time>2026-04-25T09:25:37Z</time></trkpt><trkpt lat="59.0754001681" lon="30.0225541648"><ele>88.10</ele><time>2026-04-25T09:25:57Z</time></trkpt><trkpt lat="59.0754897706" lon="30.0224755425"><ele>88.10</ele><time>2026-04-25T09:26:11Z</time></trkpt><trkpt lat="59.0756321792" lon="30.0223529991"><ele>88.10</ele><time>2026-04-25T09:26:31Z</time></trkpt><trkpt lat="59.0757179260" lon="30.0222371612"><ele>87.62</ele><time>2026-04-25T09:26:48Z</time></trkpt><trkpt lat="59.0758566465" lon="30.0221675914"><ele>87.62</ele><time>2026-04-25T09:27:10Z</time></trkpt><trkpt lat="59.0759455785" lon="30.0220138673"><ele>88.10</ele><time>2026-04-25T09:27:29Z</time></trkpt><trkpt lat="59.0761040803" lon="30.0219794177"><ele>87.62</ele><time>2026-04-25T09:27:50Z</time></trkpt><trkpt lat="59.0761879832" lon="30.0219869614"><ele>87.62</ele><time>2026-04-25T09:28:11Z</time></trkpt><trkpt lat="59.0761818644" lon="30.0219957624"><ele>87.62</ele><time>2026-04-25T09:28:36Z</time></trkpt><trkpt lat="59.0762393642" lon="30.0221733749"><ele>87.62</ele><time>2026-04-25T09:29:00Z</time></trkpt><trkpt lat="59.0762804355" lon="30.0221685972"><ele>87.62</ele><time>2026-04-25T09:29:23Z</time></trkpt><trkpt lat="59.0764218383" lon="30.0220022164"><ele>87.62</ele><time>2026-04-25T09:29:49Z</time></trkpt><trkpt lat="59.0764999576" lon="30.0219583791"><ele>87.62</ele><time>2026-04-25T09:30:09Z</time></trkpt><trkpt lat="59.0766934957" lon="30.0218315609"><ele>87.62</ele><time>2026-04-25T09:30:41Z</time></trkpt><trkpt lat="59.0767532587" lon="30.0218242686"><ele>87.14</ele><time>2026-04-25T09:31:06Z</time></trkpt><trkpt lat="59.0768655762" lon="30.0217826944"><ele>87.14</ele><time>2026-04-25T09:31:24Z</time></trkpt><trkpt lat="59.0769230761" lon="30.0217926688"><ele>87.14</ele><time>2026-04-25T09:31:51Z</time></trkpt><trkpt lat="59.0770192165" lon="30.0217547826"><ele>87.14</ele><time>2026-04-25T09:32:13Z</time></trkpt><trkpt lat="59.0771372337" lon="30.0217901543"><ele>86.66</ele><time>2026-04-25T09:32:38Z</time></trkpt><trkpt lat="59.0772409178" lon="30.0218131207"><ele>87.14</ele><time>2026-04-25T09:32:59Z</time></trkpt><trkpt lat="59.0773701668" lon="30.0217632484"><ele>86.66</ele><time>2026-04-25T09:33:20Z</time></trkpt><trkpt lat="59.0773752797" lon="30.0217695348"><ele>87.14</ele><time>2026-04-25T09:33:45Z</time></trkpt><trkpt lat="59.0773791354" lon="30.0217747316"><ele>86.66</ele><time>2026-04-25T09:34:09Z</time></trkpt><trkpt lat="59.0773880202" lon="30.0217782520"><ele>87.14</ele><time>2026-04-25T09:34:29Z</time></trkpt><trkpt lat="59.0773905348" lon="30.0217795931"><ele>87.14</ele><time>2026-04-25T09:34:56Z</time></trkpt><trkpt lat="59.0774529800" lon="30.0217401981"><ele>86.66</ele><time>2026-04-25T09:35:19Z</time></trkpt><trkpt lat="59.0776510444" lon="30.0215808582"><ele>87.14</ele><time>2026-04-25T09:35:47Z</time></trkpt><trkpt lat="59.0776676405" lon="30.0215783436"><ele>87.14</ele><time>2026-04-25T09:36:12Z</time></trkpt><trkpt lat="59.0777024254" lon="30.0215789303"><ele>86.66</ele><time>2026-04-25T09:36:37Z</time></trkpt><trkpt lat="59.0778340213" lon="30.0216585584"><ele>86.66</ele><time>2026-04-25T09:37:02Z</time></trkpt><trkpt lat="59.0779435728" lon="30.0216887332"><ele>86.66</ele><time>2026-04-25T09:37:27Z</time></trkpt><trkpt lat="59.0780672897" lon="30.0217618234"><ele>86.66</ele><time>2026-04-25T09:37:49Z</time></trkpt><trkpt lat="59.0783033241" lon="30.0215727277"><ele>86.66</ele><time>2026-04-25T09:38:17Z</time></trkpt><trkpt lat="59.0783045813" lon="30.0215724763"><ele>86.66</ele><time>2026-04-25T09:38:37Z</time></trkpt><trkpt lat="59.0783022344" lon="30.0214291457"><ele>86.18</ele><time>2026-04-25T09:38:59Z</time></trkpt><trkpt lat="59.0782936849" lon="30.0212267227"><ele>86.66</ele><time>2026-04-25T09:39:21Z</time></trkpt><trkpt lat="59.0782964509" lon="30.0212118868"><ele>86.66</ele><time>2026-04-25T09:39:42Z</time></trkpt><trkpt lat="59.0782957803" lon="30.0211920217"><ele>86.66</ele><time>2026-04-25T09:40:05Z</time></trkpt><trkpt lat="59.0782748256" lon="30.0210603420"><ele>86.66</ele><time>2026-04-25T09:40:23Z</time></trkpt><trkpt lat="59.0782331675" lon="30.0209171791"><ele>86.18</ele><time>2026-04-25T09:40:46Z</time></trkpt><trkpt lat="59.0782146435" lon="30.0208198652"><ele>86.66</ele><time>2026-04-25T09:41:07Z</time></trkpt><trkpt lat="59.0782349277" lon="30.0206998363"><ele>86.66</ele><time>2026-04-25T09:41:29Z</time></trkpt><trkpt lat="59.0782199241" lon="30.0204821583"><ele>86.66</ele><time>2026-04-25T09:41:54Z</time></trkpt><trkpt lat="59.0782087762" lon="30.0204449426"><ele>86.66</ele><time>2026-04-25T09:42:15Z</time></trkpt><trkpt lat="59.0782181639" lon="30.0203767978"><ele>86.66</ele><time>2026-04-25T09:42:34Z</time></trkpt><trkpt lat="59.0782280546" lon="30.0202375744"><ele>86.18</ele><time>2026-04-25T09:42:55Z</time></trkpt><trkpt lat="59.0782172419" lon="30.0200236682"><ele>87.14</ele><time>2026-04-25T09:43:15Z</time></trkpt><trkpt lat="59.0782033280" lon="30.0199207384"><ele>87.14</ele><time>2026-04-25T09:43:37Z</time></trkpt><trkpt lat="59.0781976283" lon="30.0198738836"><ele>87.14</ele><time>2026-04-25T09:43:56Z</time></trkpt><trkpt lat="59.0781958681" lon="30.0198410265"><ele>86.66</ele><time>2026-04-25T09:44:16Z</time></trkpt><trkpt lat="59.0781310759" lon="30.0195392780"><ele>87.14</ele><time>2026-04-25T09:44:40Z</time></trkpt><trkpt lat="59.0781315789" lon="30.0195180718"><ele>87.14</ele><time>2026-04-25T09:45:02Z</time></trkpt><trkpt lat="59.0781283937" lon="30.0195161439"><ele>87.14</ele><time>2026-04-25T09:45:26Z</time></trkpt><trkpt lat="59.0781338420" lon="30.0194916688"><ele>87.14</ele><time>2026-04-25T09:45:46Z</time></trkpt><trkpt lat="59.0781311598" lon="30.0194614939"><ele>86.66</ele><time>2026-04-25T09:46:17Z</time></trkpt><trkpt lat="59.0781261306" lon="30.0194426347"><ele>87.14</ele><time>2026-04-25T09:46:43Z</time></trkpt><trkpt lat="59.0781215206" lon="30.0194287207"><ele>87.14</ele><time>2026-04-25T09:47:03Z</time></trkpt><trkpt lat="59.0781334229" lon="30.0193206780"><ele>87.14</ele><time>2026-04-25T09:47:22Z</time></trkpt><trkpt lat="59.0781756677" lon="30.0191866513"><ele>87.14</ele><time>2026-04-25T09:47:41Z</time></trkpt><trkpt lat="59.0782226902" lon="30.0190262217"><ele>87.14</ele><time>2026-04-25T09:48:00Z</time></trkpt><trkpt lat="59.0782382805" lon="30.0189986452"><ele>87.62</ele><time>2026-04-25T09:48:21Z</time></trkpt><trkpt lat="59.0783231892" lon="30.0185747724"><ele>87.62</ele><time>2026-04-25T09:48:43Z</time></trkpt><trkpt lat="59.0783519391" lon="30.0183718465"><ele>87.62</ele><time>2026-04-25T09:49:01Z</time></trkpt><trkpt lat="59.0783724748" lon="30.0183811504"><ele>87.62</ele><time>2026-04-25T09:49:25Z</time></trkpt><trkpt lat="59.0784950182" lon="30.0183757860"><ele>87.62</ele><time>2026-04-25T09:49:52Z</time></trkpt><trkpt lat="59.0784949344" lon="30.0183817372"><ele>87.62</ele><time>2026-04-25T09:50:15Z</time></trkpt><trkpt lat="59.0784927551" lon="30.0183825754"><ele>88.58</ele><time>2026-04-25T09:50:42Z</time></trkpt><trkpt lat="59.0784865525" lon="30.0184924621"><ele>88.10</ele><time>2026-04-25T09:51:06Z</time></trkpt><trkpt lat="59.0784880612" lon="30.0188033469"><ele>87.62</ele><time>2026-04-25T09:51:28Z</time></trkpt><trkpt lat="59.0784747340" lon="30.0189587474"><ele>87.62</ele><time>2026-04-25T09:51:44Z</time></trkpt><trkpt lat="59.0784516837" lon="30.0192796905"><ele>87.14</ele><time>2026-04-25T09:52:02Z</time></trkpt><trkpt lat="59.0784485824" lon="30.0194793474"><ele>86.66</ele><time>2026-04-25T09:52:22Z</time></trkpt><trkpt lat="59.0785444714" lon="30.0196036510"><ele>87.14</ele><time>2026-04-25T09:52:43Z</time></trkpt><trkpt lat="59.0785596427" lon="30.0196407828"><ele>86.66</ele><time>2026-04-25T09:53:03Z</time></trkpt><trkpt lat="59.0786089282" lon="30.0198469777"><ele>87.14</ele><time>2026-04-25T09:53:28Z</time></trkpt><trkpt lat="59.0787312202" lon="30.0199848600"><ele>86.66</ele><time>2026-04-25T09:53:47Z</time></trkpt><trkpt lat="59.0788362455" lon="30.0200402644"><ele>87.14</ele><time>2026-04-25T09:54:05Z</time></trkpt><trkpt lat="59.0788614750" lon="30.0201936532"><ele>86.18</ele><time>2026-04-25T09:54:23Z</time></trkpt><trkpt lat="59.0788823459" lon="30.0204854272"><ele>86.18</ele><time>2026-04-25T09:54:47Z</time></trkpt><trkpt lat="59.0789465513" lon="30.0205294322"><ele>86.18</ele><time>2026-04-25T09:55:04Z</time></trkpt><trkpt lat="59.0790144447" lon="30.0205408316"><ele>86.66</ele><time>2026-04-25T09:55:28Z</time></trkpt><trkpt lat="59.0791212302" lon="30.0206297636"><ele>86.18</ele><time>2026-04-25T09:55:51Z</time></trkpt><trkpt lat="59.0792400856" lon="30.0206802227"><ele>86.66</ele><time>2026-04-25T09:56:11Z</time></trkpt><trkpt lat="59.0792847611" lon="30.0206332840"><ele>86.66</ele><time>2026-04-25T09:56:30Z</time></trkpt><trkpt lat="59.0792716853" lon="30.0206738524"><ele>86.18</ele><time>2026-04-25T09:57:01Z</time></trkpt><trkpt lat="59.0792690869" lon="30.0206927955"><ele>86.66</ele><time>2026-04-25T09:57:39Z</time></trkpt><trkpt lat="59.0792840905" lon="30.0206780434"><ele>86.66</ele><time>2026-04-25T09:57:57Z</time></trkpt><trkpt lat="59.0793977492" lon="30.0205141772"><ele>86.66</ele><time>2026-04-25T09:58:23Z</time></trkpt><trkpt lat="59.0794416703" lon="30.0205138419"><ele>87.14</ele><time>2026-04-25T09:58:42Z</time></trkpt><trkpt lat="59.0795457736" lon="30.0205283426"><ele>86.66</ele><time>2026-04-25T09:58:59Z</time></trkpt><trkpt lat="59.0795840789" lon="30.0205704197"><ele>86.66</ele><time>2026-04-25T09:59:20Z</time></trkpt><trkpt lat="59.0796569176" lon="30.0205771253"><ele>87.14</ele><time>2026-04-25T09:59:42Z</time></trkpt><trkpt lat="59.0797524713" lon="30.0205107406"><ele>86.66</ele><time>2026-04-25T10:00:07Z</time></trkpt><trkpt lat="59.0797617752" lon="30.0205067173"><ele>87.14</ele><time>2026-04-25T10:00:27Z</time></trkpt><trkpt lat="59.0797988232" lon="30.0204814877"><ele>87.62</ele><time>2026-04-25T10:00:48Z</time></trkpt><trkpt lat="59.0798625257" lon="30.0204707589"><ele>86.66</ele><time>2026-04-25T10:01:05Z</time></trkpt><trkpt lat="59.0799210314" lon="30.0204353873"><ele>87.14</ele><time>2026-04-25T10:01:22Z</time></trkpt><trkpt lat="59.0800765995" lon="30.0203461200"><ele>87.14</ele><time>2026-04-25T10:01:46Z</time></trkpt><trkpt lat="59.0801197663" lon="30.0203461200"><ele>86.66</ele><time>2026-04-25T10:02:07Z</time></trkpt><trkpt lat="59.0801595803" lon="30.0203472935"><ele>86.66</ele><time>2026-04-25T10:02:29Z</time></trkpt><trkpt lat="59.0802873205" lon="30.0203212257"><ele>87.14</ele><time>2026-04-25T10:02:52Z</time></trkpt><trkpt lat="59.0805437230" lon="30.0201994367"><ele>86.66</ele><time>2026-04-25T10:03:19Z</time></trkpt><trkpt lat="59.0805631690" lon="30.0201604608"><ele>86.66</ele><time>2026-04-25T10:03:40Z</time></trkpt><trkpt lat="59.0805712994" lon="30.0201599579"><ele>86.18</ele><time>2026-04-25T10:04:03Z</time></trkpt><trkpt lat="59.0805791784" lon="30.0201273523"><ele>86.66</ele><time>2026-04-25T10:04:23Z</time></trkpt><trkpt lat="59.0805867221" lon="30.0201031286"><ele>86.66</ele><time>2026-04-25T10:04:44Z</time></trkpt><trkpt lat="59.0806857962" lon="30.0200298708"><ele>87.14</ele><time>2026-04-25T10:05:04Z</time></trkpt><trkpt lat="59.0806991234" lon="30.0200092513"><ele>87.14</ele><time>2026-04-25T10:05:26Z</time></trkpt><trkpt lat="59.0807130374" lon="30.0199910626"><ele>87.14</ele><time>2026-04-25T10:05:48Z</time></trkpt><trkpt lat="59.0808283724" lon="30.0199025497"><ele>87.14</ele><time>2026-04-25T10:06:08Z</time></trkpt><trkpt lat="59.0808560327" lon="30.0198897254"><ele>86.66</ele><time>2026-04-25T10:06:27Z</time></trkpt><trkpt lat="59.0811250918" lon="30.0198968500"><ele>87.14</ele><time>2026-04-25T10:06:51Z</time></trkpt><trkpt lat="59.0814202186" lon="30.0198567845"><ele>87.14</ele><time>2026-04-25T10:07:17Z</time></trkpt><trkpt lat="59.0816335380" lon="30.0197238475"><ele>87.14</ele><time>2026-04-25T10:07:42Z</time></trkpt><trkpt lat="59.0817610268" lon="30.0196169782"><ele>87.62</ele><time>2026-04-25T10:07:58Z</time></trkpt><trkpt lat="59.0818190295" lon="30.0195413735"><ele>87.62</ele><time>2026-04-25T10:08:12Z</time></trkpt><trkpt lat="59.0818796307" lon="30.0195345841"><ele>87.62</ele><time>2026-04-25T10:08:19Z</time></trkpt><trkpt lat="59.0819962230" lon="30.0194709655"><ele>87.14</ele><time>2026-04-25T10:08:33Z</time></trkpt><trkpt lat="59.0821051877" lon="30.0194591470"><ele>87.14</ele><time>2026-04-25T10:08:48Z</time></trkpt><trkpt lat="59.0821664594" lon="30.0194158964"><ele>87.14</ele><time>2026-04-25T10:09:06Z</time></trkpt><trkpt lat="59.0822841413" lon="30.0193196721"><ele>87.14</ele><time>2026-04-25T10:09:23Z</time></trkpt><trkpt lat="59.0823565610" lon="30.0192811992"><ele>86.66</ele><time>2026-04-25T10:09:37Z</time></trkpt><trkpt lat="59.0824269690" lon="30.0192352664"><ele>87.14</ele><time>2026-04-25T10:09:55Z</time></trkpt><trkpt lat="59.0824347641" lon="30.0192549638"><ele>87.14</ele><time>2026-04-25T10:10:30Z</time></trkpt><trkpt lat="59.0824179165" lon="30.0193260424"><ele>86.66</ele><time>2026-04-25T10:11:12Z</time></trkpt><trkpt lat="59.0823761746" lon="30.0193928462"><ele>87.14</ele><time>2026-04-25T10:11:26Z</time></trkpt><trkpt lat="59.0822867397" lon="30.0194596499"><ele>87.62</ele><time>2026-04-25T10:11:39Z</time></trkpt><trkpt lat="59.0822523739" lon="30.0196106918"><ele>87.14</ele><time>2026-04-25T10:11:51Z</time></trkpt><trkpt lat="59.0822304972" lon="30.0197972730"><ele>87.62</ele><time>2026-04-25T10:12:06Z</time></trkpt><trkpt lat="59.0822153259" lon="30.0198483188"><ele>87.62</ele><time>2026-04-25T10:12:09Z</time></trkpt><trkpt lat="59.0822217800" lon="30.0199641567"><ele>87.62</ele><time>2026-04-25T10:12:23Z</time></trkpt><trkpt lat="59.0822619293" lon="30.0201025419"><ele>87.14</ele><time>2026-04-25T10:12:35Z</time></trkpt><trkpt lat="59.0822424833" lon="30.0201910548"><ele>86.66</ele><time>2026-04-25T10:12:50Z</time></trkpt><trkpt lat="59.0822306648" lon="30.0202604569"><ele>86.66</ele><time>2026-04-25T10:13:05Z</time></trkpt><trkpt lat="59.0822244622" lon="30.0204501394"><ele>86.66</ele><time>2026-04-25T10:13:31Z</time></trkpt><trkpt lat="59.0822928585" lon="30.0205549970"><ele>87.14</ele><time>2026-04-25T10:13:49Z</time></trkpt><trkpt lat="59.0823202673" lon="30.0205685757"><ele>86.66</ele><time>2026-04-25T10:14:10Z</time></trkpt><trkpt lat="59.0823193453" lon="30.0205724314"><ele>86.66</ele><time>2026-04-25T10:14:26Z</time></trkpt><trkpt lat="59.0822721552" lon="30.0205955654"><ele>87.14</ele><time>2026-04-25T10:15:02Z</time></trkpt><trkpt lat="59.0822287370" lon="30.0204181205"><ele>87.14</ele><time>2026-04-25T10:15:19Z</time></trkpt><trkpt lat="59.0822426509" lon="30.0201914739"><ele>87.62</ele><time>2026-04-25T10:15:34Z</time></trkpt><trkpt lat="59.0822637733" lon="30.0199821778"><ele>87.62</ele><time>2026-04-25T10:15:49Z</time></trkpt><trkpt lat="59.0823082812" lon="30.0197686907"><ele>88.10</ele><time>2026-04-25T10:16:07Z</time></trkpt><trkpt lat="59.0822911821" lon="30.0196929183"><ele>88.10</ele><time>2026-04-25T10:16:15Z</time></trkpt><trkpt lat="59.0822567325" lon="30.0194895733"><ele>88.10</ele><time>2026-04-25T10:16:30Z</time></trkpt><trkpt lat="59.0822537988" lon="30.0193581451"><ele>88.58</ele><time>2026-04-25T10:16:45Z</time></trkpt><trkpt lat="59.0822734963" lon="30.0193381961"><ele>88.10</ele><time>2026-04-25T10:17:22Z</time></trkpt><trkpt lat="59.0822787769" lon="30.0194331631"><ele>88.10</ele><time>2026-04-25T10:17:33Z</time></trkpt><trkpt lat="59.0822717361" lon="30.0194720551"><ele>88.10</ele><time>2026-04-25T10:17:47Z</time></trkpt><trkpt lat="59.0822624322" lon="30.0193467457"><ele>88.10</ele><time>2026-04-25T10:18:01Z</time></trkpt><trkpt lat="59.0823496878" lon="30.0192542933"><ele>88.58</ele><time>2026-04-25T10:18:19Z</time></trkpt><trkpt lat="59.0824570600" lon="30.0191793591"><ele>88.10</ele><time>2026-04-25T10:18:36Z</time></trkpt><trkpt lat="59.0824969579" lon="30.0190614257"><ele>88.10</ele><time>2026-04-25T10:18:55Z</time></trkpt><trkpt lat="59.0825323295" lon="30.0190796982"><ele>87.62</ele><time>2026-04-25T10:19:26Z</time></trkpt><trkpt lat="59.0826152265" lon="30.0191569794"><ele>87.62</ele><time>2026-04-25T10:19:47Z</time></trkpt><trkpt lat="59.0826454852" lon="30.0192310754"><ele>87.62</ele><time>2026-04-25T10:20:08Z</time></trkpt><trkpt lat="59.0827082656" lon="30.0192358531"><ele>87.62</ele><time>2026-04-25T10:20:29Z</time></trkpt><trkpt lat="59.0827836189" lon="30.0192031637"><ele>87.62</ele><time>2026-04-25T10:20:52Z</time></trkpt><trkpt lat="59.0828387719" lon="30.0191779342"><ele>88.10</ele><time>2026-04-25T10:21:11Z</time></trkpt><trkpt lat="59.0829435457" lon="30.0191036705"><ele>87.62</ele><time>2026-04-25T10:21:29Z</time></trkpt><trkpt lat="59.0829894785" lon="30.0190339331"><ele>88.10</ele><time>2026-04-25T10:21:46Z</time></trkpt><trkpt lat="59.0830696933" lon="30.0189882517"><ele>88.10</ele><time>2026-04-25T10:22:03Z</time></trkpt><trkpt lat="59.0831909794" lon="30.0190202706"><ele>88.58</ele><time>2026-04-25T10:22:20Z</time></trkpt><trkpt lat="59.0832810849" lon="30.0189751759"><ele>88.58</ele><time>2026-04-25T10:22:35Z</time></trkpt><trkpt lat="59.0833656583" lon="30.0189512875"><ele>88.58</ele><time>2026-04-25T10:22:48Z</time></trkpt><trkpt lat="59.0834645648" lon="30.0187861640"><ele>88.10</ele><time>2026-04-25T10:23:05Z</time></trkpt><trkpt lat="59.0835598670" lon="30.0188231282"><ele>88.58</ele><time>2026-04-25T10:23:18Z</time></trkpt><trkpt lat="59.0836270899" lon="30.0188400596"><ele>88.10</ele><time>2026-04-25T10:23:35Z</time></trkpt><trkpt lat="59.0837177821" lon="30.0188483577"><ele>88.10</ele><time>2026-04-25T10:23:49Z</time></trkpt><trkpt lat="59.0837984998" lon="30.0187780336"><ele>88.58</ele><time>2026-04-25T10:24:04Z</time></trkpt><trkpt lat="59.0839137509" lon="30.0188092981"><ele>88.10</ele><time>2026-04-25T10:24:20Z</time></trkpt><trkpt lat="59.0839820635" lon="30.0186123233"><ele>88.58</ele><time>2026-04-25T10:24:37Z</time></trkpt><trkpt lat="59.0840460174" lon="30.0184485409"><ele>88.58</ele><time>2026-04-25T10:24:55Z</time></trkpt><trkpt lat="59.0841884259" lon="30.0184094813"><ele>88.10</ele><time>2026-04-25T10:25:17Z</time></trkpt><trkpt lat="59.0842816327" lon="30.0184260774"><ele>88.58</ele><time>2026-04-25T10:25:36Z</time></trkpt><trkpt lat="59.0842763521" lon="30.0184760336"><ele>88.10</ele><time>2026-04-25T10:26:06Z</time></trkpt><trkpt lat="59.0842535533" lon="30.0184053741"><ele>88.10</ele><time>2026-04-25T10:26:41Z</time></trkpt><trkpt lat="59.0842239652" lon="30.0184184499"><ele>88.58</ele><time>2026-04-25T10:27:22Z</time></trkpt><trkpt lat="59.0842040163" lon="30.0184608623"><ele>88.10</ele><time>2026-04-25T10:27:52Z</time></trkpt><trkpt lat="59.0842057765" lon="30.0184637960"><ele>88.58</ele><time>2026-04-25T10:28:35Z</time></trkpt><trkpt lat="59.0842051897" lon="30.0184558332"><ele>89.06</ele><time>2026-04-25T10:29:21Z</time></trkpt><trkpt lat="59.0842014179" lon="30.0184235629"><ele>89.06</ele><time>2026-04-25T10:30:33Z</time></trkpt><trkpt lat="59.0842201933" lon="30.0184129179"><ele>89.06</ele><time>2026-04-25T10:31:10Z</time></trkpt><trkpt lat="59.0842621867" lon="30.0183521491"><ele>88.58</ele><time>2026-04-25T10:31:53Z</time></trkpt><trkpt lat="59.0842508711" lon="30.0181096606"><ele>88.10</ele><time>2026-04-25T10:32:14Z</time></trkpt><trkpt lat="59.0842161700" lon="30.0180290267"><ele>88.58</ele><time>2026-04-25T10:32:33Z</time></trkpt><trkpt lat="59.0842065308" lon="30.0179495662"><ele>88.58</ele><time>2026-04-25T10:32:54Z</time></trkpt><trkpt lat="59.0842349455" lon="30.0178965926"><ele>88.58</ele><time>2026-04-25T10:33:27Z</time></trkpt><trkpt lat="59.0842327662" lon="30.0177776534"><ele>89.06</ele><time>2026-04-25T10:33:50Z</time></trkpt><trkpt lat="59.0841962211" lon="30.0176636595"><ele>88.58</ele><time>2026-04-25T10:34:13Z</time></trkpt><trkpt lat="59.0841827262" lon="30.0175237656"><ele>89.54</ele><time>2026-04-25T10:34:37Z</time></trkpt><trkpt lat="59.0841663815" lon="30.0173680298"><ele>89.54</ele><time>2026-04-25T10:35:06Z</time></trkpt><trkpt lat="59.0841336921" lon="30.0171367731"><ele>89.54</ele><time>2026-04-25T10:35:25Z</time></trkpt><trkpt lat="59.0840918664" lon="30.0168536324"><ele>90.02</ele><time>2026-04-25T10:35:43Z</time></trkpt><trkpt lat="59.0840615239" lon="30.0164589286"><ele>89.54</ele><time>2026-04-25T10:36:08Z</time></trkpt><trkpt lat="59.0840134956" lon="30.0161020271"><ele>90.02</ele><time>2026-04-25T10:36:29Z</time></trkpt><trkpt lat="59.0839533973" lon="30.0157746300"><ele>90.02</ele><time>2026-04-25T10:36:50Z</time></trkpt><trkpt lat="59.0839423332" lon="30.0157760549"><ele>90.02</ele><time>2026-04-25T10:37:31Z</time></trkpt><trkpt lat="59.0839165170" lon="30.0157967582"><ele>90.02</ele><time>2026-04-25T10:38:26Z</time></trkpt><trkpt lat="59.0838796366" lon="30.0158019550"><ele>90.50</ele><time>2026-04-25T10:38:31Z</time></trkpt><trkpt lat="59.0837307740" lon="30.0158989336"><ele>90.50</ele><time>2026-04-25T10:38:47Z</time></trkpt><trkpt lat="59.0835762955" lon="30.0159442797"><ele>90.02</ele><time>2026-04-25T10:39:09Z</time></trkpt><trkpt lat="59.0835364815" lon="30.0159715209"><ele>90.02</ele><time>2026-04-25T10:39:25Z</time></trkpt><trkpt lat="59.0835278481" lon="30.0159997679"><ele>90.02</ele><time>2026-04-25T10:39:58Z</time></trkpt><trkpt lat="59.0835242439" lon="30.0161589403"><ele>90.02</ele><time>2026-04-25T10:41:05Z</time></trkpt><trkpt lat="59.0835025348" lon="30.0162655581"><ele>90.50</ele><time>2026-04-25T10:41:32Z</time></trkpt><trkpt lat="59.0834991820" lon="30.0162599422"><ele>90.50</ele><time>2026-04-25T10:42:18Z</time></trkpt><trkpt lat="59.0835494734" lon="30.0164713338"><ele>90.50</ele><time>2026-04-25T10:42:36Z</time></trkpt><trkpt lat="59.0835423488" lon="30.0166840665"><ele>90.50</ele><time>2026-04-25T10:42:52Z</time></trkpt><trkpt lat="59.0836194623" lon="30.0169051811"><ele>90.50</ele><time>2026-04-25T10:43:10Z</time></trkpt><trkpt lat="59.0836135950" lon="30.0171081908"><ele>90.98</ele><time>2026-04-25T10:43:26Z</time></trkpt><trkpt lat="59.0836249944" lon="30.0172858872"><ele>90.98</ele><time>2026-04-25T10:43:38Z</time></trkpt><trkpt lat="59.0836677421" lon="30.0174067542"><ele>90.50</ele><time>2026-04-25T10:43:47Z</time></trkpt><trkpt lat="59.0836891998" lon="30.0176027231"><ele>90.50</ele><time>2026-04-25T10:44:01Z</time></trkpt><trkpt lat="59.0837077238" lon="30.0177778210"><ele>90.98</ele><time>2026-04-25T10:44:16Z</time></trkpt><trkpt lat="59.0837561712" lon="30.0178506598"><ele>90.50</ele><time>2026-04-25T10:44:31Z</time></trkpt><trkpt lat="59.0836679935" lon="30.0179366581"><ele>90.02</ele><time>2026-04-25T10:45:23Z</time></trkpt><trkpt lat="59.0835596994" lon="30.0180205610"><ele>90.02</ele><time>2026-04-25T10:45:39Z</time></trkpt><trkpt lat="59.0834567696" lon="30.0181290228"><ele>90.50</ele><time>2026-04-25T10:45:54Z</time></trkpt><trkpt lat="59.0833385848" lon="30.0182238221"><ele>90.50</ele><time>2026-04-25T10:46:12Z</time></trkpt><trkpt lat="59.0833203960" lon="30.0182464533"><ele>90.98</ele><time>2026-04-25T10:46:36Z</time></trkpt><trkpt lat="59.0832881257" lon="30.0181547552"><ele>90.50</ele><time>2026-04-25T10:47:27Z</time></trkpt><trkpt lat="59.0832833480" lon="30.0181179587"><ele>90.50</ele><time>2026-04-25T10:47:29Z</time></trkpt><trkpt lat="59.0832546819" lon="30.0179063994"><ele>90.50</ele><time>2026-04-25T10:47:42Z</time></trkpt><trkpt lat="59.0832361579" lon="30.0176925771"><ele>90.50</ele><time>2026-04-25T10:47:57Z</time></trkpt><trkpt lat="59.0832024626" lon="30.0174830295"><ele>90.50</ele><time>2026-04-25T10:48:15Z</time></trkpt><trkpt lat="59.0831853636" lon="30.0173041597"><ele>90.50</ele><time>2026-04-25T10:48:32Z</time></trkpt><trkpt lat="59.0831587929" lon="30.0171821192"><ele>90.50</ele><time>2026-04-25T10:48:53Z</time></trkpt><trkpt lat="59.0831659175" lon="30.0170096196"><ele>90.02</ele><time>2026-04-25T10:49:14Z</time></trkpt><trkpt lat="59.0831299592" lon="30.0168702286"><ele>90.50</ele><time>2026-04-25T10:49:30Z</time></trkpt><trkpt lat="59.0830675978" lon="30.0167710707"><ele>90.50</ele><time>2026-04-25T10:49:49Z</time></trkpt><trkpt lat="59.0830234252" lon="30.0166372955"><ele>90.98</ele><time>2026-04-25T10:50:16Z</time></trkpt><trkpt lat="59.0829415340" lon="30.0165683962"><ele>90.02</ele><time>2026-04-25T10:50:36Z</time></trkpt><trkpt lat="59.0829169750" lon="30.0164469425"><ele>91.46</ele><time>2026-04-25T10:50:55Z</time></trkpt><trkpt lat="59.0828952659" lon="30.0163605250"><ele>91.46</ele><time>2026-04-25T10:51:09Z</time></trkpt><trkpt lat="59.0828196611" lon="30.0164211262"><ele>90.98</ele><time>2026-04-25T10:52:07Z</time></trkpt><trkpt lat="59.0827035718" lon="30.0164477807"><ele>91.46</ele><time>2026-04-25T10:52:28Z</time></trkpt><trkpt lat="59.0826029889" lon="30.0164921209"><ele>90.98</ele><time>2026-04-25T10:52:46Z</time></trkpt><trkpt lat="59.0825075191" lon="30.0165353715"><ele>90.98</ele><time>2026-04-25T10:53:04Z</time></trkpt><trkpt lat="59.0824541263" lon="30.0165945478"><ele>91.94</ele><time>2026-04-25T10:53:26Z</time></trkpt><trkpt lat="59.0825040825" lon="30.0167339388"><ele>91.46</ele><time>2026-04-25T10:54:29Z</time></trkpt><trkpt lat="59.0825586487" lon="30.0169286504"><ele>91.46</ele><time>2026-04-25T10:54:48Z</time></trkpt><trkpt lat="59.0825712215" lon="30.0171126332"><ele>91.46</ele><time>2026-04-25T10:55:07Z</time></trkpt><trkpt lat="59.0825610794" lon="30.0173393637"><ele>90.98</ele><time>2026-04-25T10:55:28Z</time></trkpt><trkpt lat="59.0826025698" lon="30.0175233465"><ele>91.46</ele><time>2026-04-25T10:55:46Z</time></trkpt><trkpt lat="59.0826285537" lon="30.0176796690"><ele>91.46</ele><time>2026-04-25T10:56:04Z</time></trkpt><trkpt lat="59.0826644283" lon="30.0178612210"><ele>92.42</ele><time>2026-04-25T10:56:23Z</time></trkpt><trkpt lat="59.0826481674" lon="30.0179455429"><ele>91.46</ele><time>2026-04-25T10:56:42Z</time></trkpt><trkpt lat="59.0826360974" lon="30.0180804916"><ele>91.94</ele><time>2026-04-25T10:57:01Z</time></trkpt><trkpt lat="59.0826487541" lon="30.0182076450"><ele>91.46</ele><time>2026-04-25T10:57:18Z</time></trkpt><trkpt lat="59.0826456528" lon="30.0183258299"><ele>91.46</ele><time>2026-04-25T10:57:32Z</time></trkpt><trkpt lat="59.0826442279" lon="30.0184774585"><ele>91.46</ele><time>2026-04-25T10:57:49Z</time></trkpt><trkpt lat="59.0826440603" lon="30.0184974913"><ele>91.94</ele><time>2026-04-25T10:58:18Z</time></trkpt><trkpt lat="59.0825715568" lon="30.0184591860"><ele>91.94</ele><time>2026-04-25T10:59:05Z</time></trkpt><trkpt lat="59.0824659448" lon="30.0185067952"><ele>91.94</ele><time>2026-04-25T10:59:27Z</time></trkpt><trkpt lat="59.0824147314" lon="30.0185339525"><ele>91.46</ele><time>2026-04-25T10:59:49Z</time></trkpt><trkpt lat="59.0823727380" lon="30.0185627863"><ele>91.94</ele><time>2026-04-25T11:00:12Z</time></trkpt><trkpt lat="59.0823640209" lon="30.0185276661"><ele>91.94</ele><time>2026-04-25T11:00:41Z</time></trkpt><trkpt lat="59.0823803656" lon="30.0186718348"><ele>92.42</ele><time>2026-04-25T11:01:28Z</time></trkpt><trkpt lat="59.0823671222" lon="30.0186840724"><ele>91.94</ele><time>2026-04-25T11:02:04Z</time></trkpt><trkpt lat="59.0823785216" lon="30.0186585914"><ele>91.94</ele><time>2026-04-25T11:02:41Z</time></trkpt><trkpt lat="59.0823757555" lon="30.0186502934"><ele>91.94</ele><time>2026-04-25T11:03:23Z</time></trkpt><trkpt lat="59.0823737439" lon="30.0186392292"><ele>92.90</ele><time>2026-04-25T11:03:54Z</time></trkpt><trkpt lat="59.0823244583" lon="30.0186834857"><ele>92.42</ele><time>2026-04-25T11:05:03Z</time></trkpt><trkpt lat="59.0822344366" lon="30.0187220424"><ele>92.90</ele><time>2026-04-25T11:05:21Z</time></trkpt><trkpt lat="59.0822172537" lon="30.0187308434"><ele>93.39</ele><time>2026-04-25T11:05:41Z</time></trkpt><trkpt lat="59.0822024178" lon="30.0185347907"><ele>92.42</ele><time>2026-04-25T11:07:11Z</time></trkpt><trkpt lat="59.0821802896" lon="30.0183036178"><ele>93.39</ele><time>2026-04-25T11:07:27Z</time></trkpt><trkpt lat="59.0821942873" lon="30.0180494785"><ele>93.39</ele><time>2026-04-25T11:07:46Z</time></trkpt><trkpt lat="59.0821631905" lon="30.0178926531"><ele>93.39</ele><time>2026-04-25T11:08:04Z</time></trkpt><trkpt lat="59.0821331833" lon="30.0176902302"><ele>93.39</ele><time>2026-04-25T11:08:19Z</time></trkpt><trkpt lat="59.0821008291" lon="30.0174879748"><ele>93.39</ele><time>2026-04-25T11:08:36Z</time></trkpt><trkpt lat="59.0820759349" lon="30.0173548702"><ele>93.87</ele><time>2026-04-25T11:08:51Z</time></trkpt><trkpt lat="59.0820614342" lon="30.0171781797"><ele>94.35</ele><time>2026-04-25T11:09:08Z</time></trkpt><trkpt lat="59.0821005777" lon="30.0169739965"><ele>94.35</ele><time>2026-04-25T11:09:24Z</time></trkpt><trkpt lat="59.0821192693" lon="30.0167652871"><ele>93.87</ele><time>2026-04-25T11:09:42Z</time></trkpt><trkpt lat="59.0820930339" lon="30.0167379621"><ele>94.35</ele><time>2026-04-25T11:09:57Z</time></trkpt><trkpt lat="59.0820369590" lon="30.0167767704"><ele>94.35</ele><time>2026-04-25T11:10:44Z</time></trkpt><trkpt lat="59.0819234680" lon="30.0168444961"><ele>94.83</ele><time>2026-04-25T11:11:25Z</time></trkpt><trkpt lat="59.0818530601" lon="30.0168883335"><ele>94.83</ele><time>2026-04-25T11:11:43Z</time></trkpt><trkpt lat="59.0817624517" lon="30.0168773532"><ele>94.83</ele><time>2026-04-25T11:12:03Z</time></trkpt><trkpt lat="59.0816696640" lon="30.0169248786"><ele>94.83</ele><time>2026-04-25T11:12:23Z</time></trkpt><trkpt lat="59.0816509724" lon="30.0169635192"><ele>95.31</ele><time>2026-04-25T11:12:55Z</time></trkpt><trkpt lat="59.0816575941" lon="30.0171060953"><ele>94.83</ele><time>2026-04-25T11:13:45Z</time></trkpt><trkpt lat="59.0817007609" lon="30.0172522757"><ele>95.31</ele><time>2026-04-25T11:14:09Z</time></trkpt><trkpt lat="59.0817608591" lon="30.0174957700"><ele>94.83</ele><time>2026-04-25T11:14:29Z</time></trkpt><trkpt lat="59.0817724261" lon="30.0175970234"><ele>94.83</ele><time>2026-04-25T11:14:46Z</time></trkpt><trkpt lat="59.0817524772" lon="30.0178242568"><ele>95.31</ele><time>2026-04-25T11:15:06Z</time></trkpt><trkpt lat="59.0817753598" lon="30.0180474669"><ele>95.31</ele><time>2026-04-25T11:15:26Z</time></trkpt><trkpt lat="59.0817745216" lon="30.0183388218"><ele>95.31</ele><time>2026-04-25T11:15:48Z</time></trkpt><trkpt lat="59.0817849990" lon="30.0186181907"><ele>95.79</ele><time>2026-04-25T11:16:06Z</time></trkpt><trkpt lat="59.0818053670" lon="30.0188070349"><ele>95.79</ele><time>2026-04-25T11:16:21Z</time></trkpt><trkpt lat="59.0817911178" lon="30.0189963821"><ele>95.79</ele><time>2026-04-25T11:16:36Z</time></trkpt><trkpt lat="59.0816696640" lon="30.0190988928"><ele>95.79</ele><time>2026-04-25T11:17:29Z</time></trkpt><trkpt lat="59.0815880243" lon="30.0191336777"><ele>95.31</ele><time>2026-04-25T11:17:48Z</time></trkpt><trkpt lat="59.0814090706" lon="30.0193280540"><ele>94.83</ele><time>2026-04-25T11:18:15Z</time></trkpt><trkpt lat="59.0813437756" lon="30.0193814468"><ele>94.83</ele><time>2026-04-25T11:18:38Z</time></trkpt><trkpt lat="59.0813146904" lon="30.0193739869"><ele>94.83</ele><time>2026-04-25T11:19:08Z</time></trkpt><trkpt lat="59.0812249202" lon="30.0192229450"><ele>94.83</ele><time>2026-04-25T11:19:33Z</time></trkpt><trkpt lat="59.0811503213" lon="30.0188552309"><ele>94.83</ele><time>2026-04-25T11:19:56Z</time></trkpt><trkpt lat="59.0811221581" lon="30.0183671527"><ele>95.31</ele><time>2026-04-25T11:20:20Z</time></trkpt><trkpt lat="59.0811019577" lon="30.0180710200"><ele>95.79</ele><time>2026-04-25T11:20:38Z</time></trkpt><trkpt lat="59.0810484812" lon="30.0179574452"><ele>96.27</ele><time>2026-04-25T11:21:00Z</time></trkpt><trkpt lat="59.0810411889" lon="30.0179686770"><ele>95.79</ele><time>2026-04-25T11:21:26Z</time></trkpt><trkpt lat="59.0810304601" lon="30.0178335607"><ele>95.79</ele><time>2026-04-25T11:22:02Z</time></trkpt><trkpt lat="59.0810059849" lon="30.0175893959"><ele>96.27</ele><time>2026-04-25T11:22:22Z</time></trkpt><trkpt lat="59.0809843596" lon="30.0173363462"><ele>96.75</ele><time>2026-04-25T11:22:38Z</time></trkpt><trkpt lat="59.0809781570" lon="30.0171572249"><ele>96.75</ele><time>2026-04-25T11:22:52Z</time></trkpt><trkpt lat="59.0809517540" lon="30.0171993859"><ele>96.75</ele><time>2026-04-25T11:23:28Z</time></trkpt><trkpt lat="59.0808532666" lon="30.0171879865"><ele>96.27</ele><time>2026-04-25T11:24:52Z</time></trkpt><trkpt lat="59.0807837807" lon="30.0172638427"><ele>96.27</ele><time>2026-04-25T11:25:15Z</time></trkpt><trkpt lat="59.0805656835" lon="30.0173981208"><ele>96.27</ele><time>2026-04-25T11:25:45Z</time></trkpt><trkpt lat="59.0805313177" lon="30.0174492504"><ele>96.75</ele><time>2026-04-25T11:26:05Z</time></trkpt><trkpt lat="59.0805288870" lon="30.0175022241"><ele>96.27</ele><time>2026-04-25T11:26:43Z</time></trkpt><trkpt lat="59.0805398673" lon="30.0176461414"><ele>95.79</ele><time>2026-04-25T11:26:59Z</time></trkpt><trkpt lat="59.0805219300" lon="30.0179644860"><ele>96.75</ele><time>2026-04-25T11:27:25Z</time></trkpt><trkpt lat="59.0805788431" lon="30.0180119276"><ele>96.27</ele><time>2026-04-25T11:27:42Z</time></trkpt><trkpt lat="59.0806414559" lon="30.0182539970"><ele>96.27</ele><time>2026-04-25T11:28:07Z</time></trkpt><trkpt lat="59.0806623269" lon="30.0184228923"><ele>96.27</ele><time>2026-04-25T11:28:31Z</time></trkpt><trkpt lat="59.0806464851" lon="30.0185616966"><ele>95.79</ele><time>2026-04-25T11:29:27Z</time></trkpt><trkpt lat="59.0806623269" lon="30.0185448490"><ele>96.75</ele><time>2026-04-25T11:29:59Z</time></trkpt><trkpt lat="59.0806784201" lon="30.0185483694"><ele>96.27</ele><time>2026-04-25T11:30:37Z</time></trkpt><trkpt lat="59.0807173960" lon="30.0186177716"><ele>95.79</ele><time>2026-04-25T11:30:59Z</time></trkpt><trkpt lat="59.0807395242" lon="30.0187448412"><ele>96.27</ele><time>2026-04-25T11:31:19Z</time></trkpt><trkpt lat="59.0807653405" lon="30.0190049317"><ele>96.27</ele><time>2026-04-25T11:31:45Z</time></trkpt><trkpt lat="59.0807697829" lon="30.0192435645"><ele>95.79</ele><time>2026-04-25T11:32:06Z</time></trkpt><trkpt lat="59.0807462297" lon="30.0193763338"><ele>96.27</ele><time>2026-04-25T11:32:30Z</time></trkpt><trkpt lat="59.0807138756" lon="30.0193942711"><ele>95.79</ele><time>2026-04-25T11:33:23Z</time></trkpt><trkpt lat="59.0806164779" lon="30.0193709694"><ele>95.79</ele><time>2026-04-25T11:33:53Z</time></trkpt><trkpt lat="59.0805403702" lon="30.0194404554"><ele>96.27</ele><time>2026-04-25T11:34:16Z</time></trkpt><trkpt lat="59.0804568864" lon="30.0194442272"><ele>96.27</ele><time>2026-04-25T11:34:35Z</time></trkpt><trkpt lat="59.0804349259" lon="30.0195480790"><ele>96.27</ele><time>2026-04-25T11:34:57Z</time></trkpt><trkpt lat="59.0803562198" lon="30.0196723826"><ele>95.79</ele><time>2026-04-25T11:35:22Z</time></trkpt><trkpt lat="59.0802961215" lon="30.0197426230"><ele>96.75</ele><time>2026-04-25T11:35:56Z</time></trkpt><trkpt lat="59.0802931879" lon="30.0197140407"><ele>95.79</ele><time>2026-04-25T11:36:16Z</time></trkpt><trkpt lat="59.0803007316" lon="30.0196529366"><ele>96.75</ele><time>2026-04-25T11:36:37Z</time></trkpt><trkpt lat="59.0802726522" lon="30.0194600690"><ele>96.75</ele><time>2026-04-25T11:36:56Z</time></trkpt><trkpt lat="59.0802158229" lon="30.0190457515"><ele>96.75</ele><time>2026-04-25T11:37:16Z</time></trkpt><trkpt lat="59.0802256297" lon="30.0189488567"><ele>96.75</ele><time>2026-04-25T11:37:36Z</time></trkpt><trkpt lat="59.0802510269" lon="30.0187404826"><ele>96.75</ele><time>2026-04-25T11:38:02Z</time></trkpt><trkpt lat="59.0801746678" lon="30.0186273269"><ele>97.23</ele><time>2026-04-25T11:38:25Z</time></trkpt><trkpt lat="59.0801121388" lon="30.0185729284"><ele>97.23</ele><time>2026-04-25T11:38:47Z</time></trkpt><trkpt lat="59.0800513700" lon="30.0183565915"><ele>97.23</ele><time>2026-04-25T11:39:12Z</time></trkpt><trkpt lat="59.0799877513" lon="30.0182121713"><ele>98.19</ele><time>2026-04-25T11:39:41Z</time></trkpt><trkpt lat="59.0799663775" lon="30.0181817450"><ele>98.19</ele><time>2026-04-25T11:40:12Z</time></trkpt><trkpt lat="59.0798300877" lon="30.0181943178"><ele>98.19</ele><time>2026-04-25T11:40:39Z</time></trkpt><trkpt lat="59.0798273217" lon="30.0182072259"><ele>98.19</ele><time>2026-04-25T11:41:07Z</time></trkpt><trkpt lat="59.0798414871" lon="30.0181949884"><ele>98.19</ele><time>2026-04-25T11:41:26Z</time></trkpt><trkpt lat="59.0798711590" lon="30.0181580242"><ele>98.19</ele><time>2026-04-25T11:41:50Z</time></trkpt><trkpt lat="59.0799471829" lon="30.0181834213"><ele>98.19</ele><time>2026-04-25T11:42:16Z</time></trkpt><trkpt lat="59.0800315887" lon="30.0181107502"><ele>98.19</ele><time>2026-04-25T11:42:29Z</time></trkpt><trkpt lat="59.0800507832" lon="30.0179715268"><ele>98.67</ele><time>2026-04-25T11:42:46Z</time></trkpt><trkpt lat="59.0800205246" lon="30.0178359915"><ele>98.67</ele><time>2026-04-25T11:43:06Z</time></trkpt><trkpt lat="59.0800061915" lon="30.0178196467"><ele>98.19</ele><time>2026-04-25T11:43:28Z</time></trkpt><trkpt lat="59.0799855720" lon="30.0177994464"><ele>98.67</ele><time>2026-04-25T11:43:53Z</time></trkpt><trkpt lat="59.0799460933" lon="30.0176988635"><ele>98.67</ele><time>2026-04-25T11:44:15Z</time></trkpt><trkpt lat="59.0798799600" lon="30.0174607337"><ele>98.67</ele><time>2026-04-25T11:44:42Z</time></trkpt><trkpt lat="59.0798748471" lon="30.0174641702"><ele>98.19</ele><time>2026-04-25T11:45:07Z</time></trkpt><trkpt lat="59.0798772778" lon="30.0174635835"><ele>98.19</ele><time>2026-04-25T11:45:29Z</time></trkpt><trkpt lat="59.0798822232" lon="30.0174572971"><ele>98.67</ele><time>2026-04-25T11:45:56Z</time></trkpt><trkpt lat="59.0798860788" lon="30.0174515974"><ele>98.67</ele><time>2026-04-25T11:46:18Z</time></trkpt><trkpt lat="59.0798847377" lon="30.0174541958"><ele>98.67</ele><time>2026-04-25T11:46:44Z</time></trkpt><trkpt lat="59.0798831452" lon="30.0174527708"><ele>98.67</ele><time>2026-04-25T11:47:03Z</time></trkpt><trkpt lat="59.0798853245" lon="30.0174481608"><ele>99.15</ele><time>2026-04-25T11:47:27Z</time></trkpt><trkpt lat="59.0798940416" lon="30.0174434669"><ele>98.67</ele><time>2026-04-25T11:47:52Z</time></trkpt><trkpt lat="59.0798996575" lon="30.0174415391"><ele>99.15</ele><time>2026-04-25T11:48:15Z</time></trkpt><trkpt lat="59.0799044352" lon="30.0174425449"><ele>99.15</ele><time>2026-04-25T11:48:41Z</time></trkpt><trkpt lat="59.0799116436" lon="30.0174373481"><ele>99.15</ele><time>2026-04-25T11:49:07Z</time></trkpt><trkpt lat="59.0799198579" lon="30.0174405333"><ele>99.15</ele><time>2026-04-25T11:49:34Z</time></trkpt><trkpt lat="59.0799115598" lon="30.0174412876"><ele>99.15</ele><time>2026-04-25T11:49:59Z</time></trkpt><trkpt lat="59.0799106378" lon="30.0174329896"><ele>99.63</ele><time>2026-04-25T11:50:23Z</time></trkpt><trkpt lat="59.0799075365" lon="30.0174294692"><ele>99.63</ele><time>2026-04-25T11:50:48Z</time></trkpt><trkpt lat="59.0799056925" lon="30.0174294692"><ele>99.63</ele><time>2026-04-25T11:51:09Z</time></trkpt><trkpt lat="59.0799121466" lon="30.0174216740"><ele>99.63</ele><time>2026-04-25T11:51:33Z</time></trkpt><trkpt lat="59.0799201932" lon="30.0174074247"><ele>99.63</ele><time>2026-04-25T11:51:57Z</time></trkpt><trkpt lat="59.0799111407" lon="30.0174015574"><ele>99.63</ele><time>2026-04-25T11:52:25Z</time></trkpt><trkpt lat="59.0799144935" lon="30.0174041558"><ele>99.63</ele><time>2026-04-25T11:52:53Z</time></trkpt><trkpt lat="59.0799043514" lon="30.0174098555"><ele>99.63</ele><time>2026-04-25T11:53:20Z</time></trkpt><trkpt lat="59.0799038485" lon="30.0174099393"><ele>99.63</ele><time>2026-04-25T11:53:43Z</time></trkpt><trkpt lat="59.0799049381" lon="30.0174110290"><ele>99.63</ele><time>2026-04-25T11:54:07Z</time></trkpt><trkpt lat="59.0799091291" lon="30.0174175669"><ele>99.63</ele><time>2026-04-25T11:54:32Z</time></trkpt><trkpt lat="59.0799160860" lon="30.0174361747"><ele>99.63</ele><time>2026-04-25T11:54:57Z</time></trkpt><trkpt lat="59.0799165890" lon="30.0174245238"><ele>99.63</ele><time>2026-04-25T11:55:23Z</time></trkpt><trkpt lat="59.0799103864" lon="30.0174328219"><ele>100.11</ele><time>2026-04-25T11:55:50Z</time></trkpt><trkpt lat="59.0799033456" lon="30.0174210873"><ele>100.11</ele><time>2026-04-25T11:56:22Z</time></trkpt><trkpt lat="59.0799033456" lon="30.0174269546"><ele>100.11</ele><time>2026-04-25T11:56:46Z</time></trkpt><trkpt lat="59.0799074527" lon="30.0174292177"><ele>100.11</ele><time>2026-04-25T11:57:13Z</time></trkpt><trkpt lat="59.0799177624" lon="30.0174160581"><ele>100.11</ele><time>2026-04-25T11:57:43Z</time></trkpt><trkpt lat="59.0799178462" lon="30.0174203329"><ele>100.60</ele><time>2026-04-25T11:58:11Z</time></trkpt><trkpt lat="59.0799089614" lon="30.0174249429"><ele>100.60</ele><time>2026-04-25T11:58:36Z</time></trkpt><trkpt lat="59.0799174272" lon="30.0174137950"><ele>100.60</ele><time>2026-04-25T11:59:01Z</time></trkpt><trkpt lat="59.0798908565" lon="30.0173614919"><ele>100.60</ele><time>2026-04-25T11:59:43Z</time></trkpt><trkpt lat="59.0798995737" lon="30.0173440576"><ele>100.60</ele><time>2026-04-25T12:00:30Z</time></trkpt><trkpt lat="59.0798965562" lon="30.0173474941"><ele>100.60</ele><time>2026-04-25T12:00:58Z</time></trkpt><trkpt lat="59.0798981488" lon="30.0173511822"><ele>101.56</ele><time>2026-04-25T12:01:24Z</time></trkpt><trkpt lat="59.0798984841" lon="30.0173434708"><ele>101.56</ele><time>2026-04-25T12:01:50Z</time></trkpt><trkpt lat="59.0798957180" lon="30.0173506793"><ele>101.56</ele><time>2026-04-25T12:02:12Z</time></trkpt><trkpt lat="59.0799011663" lon="30.0173564628"><ele>101.08</ele><time>2026-04-25T12:02:37Z</time></trkpt><trkpt lat="59.0799032617" lon="30.0173635874"><ele>101.08</ele><time>2026-04-25T12:02:59Z</time></trkpt><trkpt lat="59.0798978973" lon="30.0173646770"><ele>101.56</ele><time>2026-04-25T12:03:22Z</time></trkpt><trkpt lat="59.0798975620" lon="30.0173728913"><ele>102.04</ele><time>2026-04-25T12:03:46Z</time></trkpt><trkpt lat="59.0798973944" lon="30.0173816923"><ele>101.56</ele><time>2026-04-25T12:04:08Z</time></trkpt><trkpt lat="59.0798959695" lon="30.0173793454"><ele>101.08</ele><time>2026-04-25T12:04:32Z</time></trkpt><trkpt lat="59.0798929520" lon="30.0173827820"><ele>101.08</ele><time>2026-04-25T12:04:54Z</time></trkpt><trkpt lat="59.0798946284" lon="30.0173801836"><ele>101.08</ele><time>2026-04-25T12:05:17Z</time></trkpt><trkpt lat="59.0799009986" lon="30.0173840392"><ele>101.08</ele><time>2026-04-25T12:05:39Z</time></trkpt><trkpt lat="59.0799015854" lon="30.0173934270"><ele>102.04</ele><time>2026-04-25T12:06:04Z</time></trkpt><trkpt lat="59.0798997413" lon="30.0173965283"><ele>101.56</ele><time>2026-04-25T12:06:27Z</time></trkpt><trkpt lat="59.0798938740" lon="30.0173942652"><ele>102.04</ele><time>2026-04-25T12:06:51Z</time></trkpt><trkpt lat="59.0798861627" lon="30.0174041558"><ele>103.00</ele><time>2026-04-25T12:07:12Z</time></trkpt><trkpt lat="59.0798791219" lon="30.0174145494"><ele>102.52</ele><time>2026-04-25T12:07:37Z</time></trkpt><trkpt lat="59.0798768587" lon="30.0174126215"><ele>103.00</ele><time>2026-04-25T12:08:06Z</time></trkpt><trkpt lat="59.0798784513" lon="30.0174094364"><ele>103.00</ele><time>2026-04-25T12:08:33Z</time></trkpt><trkpt lat="59.0798792895" lon="30.0174131244"><ele>103.00</ele><time>2026-04-25T12:08:54Z</time></trkpt><trkpt lat="59.0798768587" lon="30.0174107775"><ele>102.52</ele><time>2026-04-25T12:09:21Z</time></trkpt><trkpt lat="59.0798794571" lon="30.0174062513"><ele>103.00</ele><time>2026-04-25T12:09:47Z</time></trkpt><trkpt lat="59.0798731707" lon="30.0174045749"><ele>103.00</ele><time>2026-04-25T12:10:14Z</time></trkpt><trkpt lat="59.0798736736" lon="30.0174035691"><ele>103.48</ele><time>2026-04-25T12:10:34Z</time></trkpt><trkpt lat="59.0798720811" lon="30.0174022280"><ele>103.00</ele><time>2026-04-25T12:10:59Z</time></trkpt><trkpt lat="59.0798663814" lon="30.0174017251"><ele>103.48</ele><time>2026-04-25T12:11:21Z</time></trkpt><trkpt lat="59.0798624419" lon="30.0173993781"><ele>103.48</ele><time>2026-04-25T12:11:43Z</time></trkpt><trkpt lat="59.0798634477" lon="30.0173971988"><ele>103.00</ele><time>2026-04-25T12:12:12Z</time></trkpt><trkpt lat="59.0798432473" lon="30.0174168963"><ele>103.00</ele><time>2026-04-25T12:12:33Z</time></trkpt><trkpt lat="59.0798724163" lon="30.0174808502"><ele>103.00</ele><time>2026-04-25T12:13:15Z</time></trkpt><trkpt lat="59.0798752662" lon="30.0174780842"><ele>103.96</ele><time>2026-04-25T12:13:37Z</time></trkpt><trkpt lat="59.0798766911" lon="30.0174718816"><ele>103.48</ele><time>2026-04-25T12:14:06Z</time></trkpt><trkpt lat="59.0798781998" lon="30.0174745638"><ele>103.96</ele><time>2026-04-25T12:14:24Z</time></trkpt><trkpt lat="59.0798793733" lon="30.0174712949"><ele>103.48</ele><time>2026-04-25T12:14:49Z</time></trkpt><trkpt lat="59.0798615199" lon="30.0174883939"><ele>103.48</ele><time>2026-04-25T12:15:15Z</time></trkpt><trkpt lat="59.0797128249" lon="30.0176668447"><ele>103.96</ele><time>2026-04-25T12:15:42Z</time></trkpt><trkpt lat="59.0796441771" lon="30.0177876279"><ele>103.48</ele><time>2026-04-25T12:16:05Z</time></trkpt><trkpt lat="59.0795532335" lon="30.0180010311"><ele>103.48</ele><time>2026-04-25T12:16:29Z</time></trkpt><trkpt lat="59.0794899501" lon="30.0179947447"><ele>103.48</ele><time>2026-04-25T12:16:55Z</time></trkpt><trkpt lat="59.0794519801" lon="30.0180040486"><ele>103.96</ele><time>2026-04-25T12:17:19Z</time></trkpt><trkpt lat="59.0794394910" lon="30.0180363189"><ele>104.44</ele><time>2026-04-25T12:17:47Z</time></trkpt><trkpt lat="59.0794420894" lon="30.0180722773"><ele>103.96</ele><time>2026-04-25T12:18:08Z</time></trkpt><trkpt lat="59.0795261599" lon="30.0182569306"><ele>103.96</ele><time>2026-04-25T12:18:33Z</time></trkpt><trkpt lat="59.0795622859" lon="30.0183639675"><ele>103.96</ele><time>2026-04-25T12:18:53Z</time></trkpt><trkpt lat="59.0795751940" lon="30.0184545759"><ele>103.48</ele><time>2026-04-25T12:19:13Z</time></trkpt><trkpt lat="59.0795865934" lon="30.0185521413"><ele>104.44</ele><time>2026-04-25T12:19:36Z</time></trkpt><trkpt lat="59.0795941371" lon="30.0185739342"><ele>104.44</ele><time>2026-04-25T12:19:53Z</time></trkpt><trkpt lat="59.0795813967" lon="30.0186056178"><ele>104.44</ele><time>2026-04-25T12:20:10Z</time></trkpt><trkpt lat="59.0795411635" lon="30.0187382195"><ele>103.96</ele><time>2026-04-25T12:20:28Z</time></trkpt><trkpt lat="59.0795540716" lon="30.0191188417"><ele>103.96</ele><time>2026-04-25T12:20:53Z</time></trkpt><trkpt lat="59.0795819834" lon="30.0194738992"><ele>103.96</ele><time>2026-04-25T12:21:18Z</time></trkpt><trkpt lat="59.0796195343" lon="30.0195022300"><ele>103.96</ele><time>2026-04-25T12:21:38Z</time></trkpt><trkpt lat="59.0796361305" lon="30.0194978714"><ele>104.44</ele><time>2026-04-25T12:21:55Z</time></trkpt><trkpt lat="59.0796785429" lon="30.0194659363"><ele>103.96</ele><time>2026-04-25T12:22:09Z</time></trkpt><trkpt lat="59.0797402337" lon="30.0195400324"><ele>103.96</ele><time>2026-04-25T12:22:31Z</time></trkpt><trkpt lat="59.0797943808" lon="30.0196987856"><ele>103.96</ele><time>2026-04-25T12:22:53Z</time></trkpt><trkpt lat="59.0797796287" lon="30.0197978597"><ele>103.96</ele><time>2026-04-25T12:23:15Z</time></trkpt><trkpt lat="59.0797718335" lon="30.0198739674"><ele>103.96</ele><time>2026-04-25T12:23:44Z</time></trkpt><trkpt lat="59.0797726717" lon="30.0198827684"><ele>103.96</ele><time>2026-04-25T12:24:08Z</time></trkpt><trkpt lat="59.0797489509" lon="30.0199665874"><ele>104.44</ele><time>2026-04-25T12:24:28Z</time></trkpt><trkpt lat="59.0796880983" lon="30.0200582854"><ele>104.44</ele><time>2026-04-25T12:24:48Z</time></trkpt><trkpt lat="59.0795598552" lon="30.0200916454"><ele>104.44</ele><time>2026-04-25T12:25:14Z</time></trkpt><trkpt lat="59.0794294327" lon="30.0201346446"><ele>104.44</ele><time>2026-04-25T12:25:37Z</time></trkpt><trkpt lat="59.0793202166" lon="30.0201045536"><ele>104.44</ele><time>2026-04-25T12:26:02Z</time></trkpt><trkpt lat="59.0793040395" lon="30.0200831797"><ele>104.44</ele><time>2026-04-25T12:26:36Z</time></trkpt><trkpt lat="59.0793005191" lon="30.0200463831"><ele>104.92</ele><time>2026-04-25T12:26:57Z</time></trkpt><trkpt lat="59.0792874433" lon="30.0197679363"><ele>105.40</ele><time>2026-04-25T12:27:20Z</time></trkpt><trkpt lat="59.0792666562" lon="30.0194826163"><ele>105.40</ele><time>2026-04-25T12:27:45Z</time></trkpt><trkpt lat="59.0792597830" lon="30.0194315705"><ele>105.40</ele><time>2026-04-25T12:28:08Z</time></trkpt><trkpt lat="59.0792661533" lon="30.0193423871"><ele>105.40</ele><time>2026-04-25T12:28:31Z</time></trkpt><trkpt lat="59.0792661533" lon="30.0192969572"><ele>105.40</ele><time>2026-04-25T12:28:52Z</time></trkpt><trkpt lat="59.0792409237" lon="30.0189788640"><ele>105.88</ele><time>2026-04-25T12:29:11Z</time></trkpt><trkpt lat="59.0791699290" lon="30.0189125631"><ele>105.88</ele><time>2026-04-25T12:29:29Z</time></trkpt><trkpt lat="59.0791009460" lon="30.0188758504"><ele>105.88</ele><time>2026-04-25T12:29:47Z</time></trkpt><trkpt lat="59.0790920611" lon="30.0188438315"><ele>106.36</ele><time>2026-04-25T12:30:07Z</time></trkpt><trkpt lat="59.0790433623" lon="30.0187086314"><ele>106.36</ele><time>2026-04-25T12:30:26Z</time></trkpt><trkpt lat="59.0790057275" lon="30.0183822401"><ele>106.84</ele><time>2026-04-25T12:30:46Z</time></trkpt><trkpt lat="59.0789421927" lon="30.0181921385"><ele>107.32</ele><time>2026-04-25T12:31:10Z</time></trkpt><trkpt lat="59.0789377503" lon="30.0181890372"><ele>107.32</ele><time>2026-04-25T12:31:43Z</time></trkpt><trkpt lat="59.0788679291" lon="30.0181304477"><ele>107.32</ele><time>2026-04-25T12:32:04Z</time></trkpt><trkpt lat="59.0787119418" lon="30.0180736184"><ele>107.81</ele><time>2026-04-25T12:32:26Z</time></trkpt><trkpt lat="59.0786190704" lon="30.0182626303"><ele>107.81</ele><time>2026-04-25T12:32:49Z</time></trkpt><trkpt lat="59.0785289649" lon="30.0183638837"><ele>107.81</ele><time>2026-04-25T12:33:12Z</time></trkpt><trkpt lat="59.0784304775" lon="30.0185151771"><ele>107.81</ele><time>2026-04-25T12:33:42Z</time></trkpt><trkpt lat="59.0784496721" lon="30.0185641274"><ele>107.81</ele><time>2026-04-25T12:34:26Z</time></trkpt><trkpt lat="59.0785764903" lon="30.0190455839"><ele>107.81</ele><time>2026-04-25T12:34:56Z</time></trkpt><trkpt lat="59.0786561184" lon="30.0193551276"><ele>107.81</ele><time>2026-04-25T12:35:24Z</time></trkpt><trkpt lat="59.0786694456" lon="30.0194716360"><ele>107.32</ele><time>2026-04-25T12:35:46Z</time></trkpt><trkpt lat="59.0787430387" lon="30.0197219197"><ele>107.32</ele><time>2026-04-25T12:36:11Z</time></trkpt><trkpt lat="59.0788333956" lon="30.0199565291"><ele>107.32</ele><time>2026-04-25T12:36:31Z</time></trkpt><trkpt lat="59.0788781550" lon="30.0202243309"><ele>106.84</ele><time>2026-04-25T12:36:57Z</time></trkpt><trkpt lat="59.0788613912" lon="30.0202735327"><ele>106.84</ele><time>2026-04-25T12:37:37Z</time></trkpt><trkpt lat="59.0788423643" lon="30.0202856865"><ele>106.84</ele><time>2026-04-25T12:37:55Z</time></trkpt><trkpt lat="59.0787873790" lon="30.0203834195"><ele>107.32</ele><time>2026-04-25T12:38:11Z</time></trkpt><trkpt lat="59.0787021350" lon="30.0204984192"><ele>107.32</ele><time>2026-04-25T12:38:32Z</time></trkpt><trkpt lat="59.0786906518" lon="30.0205256604"><ele>107.32</ele><time>2026-04-25T12:38:53Z</time></trkpt><trkpt lat="59.0786864609" lon="30.0205903687"><ele>106.84</ele><time>2026-04-25T12:39:15Z</time></trkpt><trkpt lat="59.0786838625" lon="30.0206095632"><ele>106.84</ele><time>2026-04-25T12:39:30Z</time></trkpt><trkpt lat="59.0786736365" lon="30.0206258241"><ele>106.84</ele><time>2026-04-25T12:39:46Z</time></trkpt><trkpt lat="59.0786116943" lon="30.0207235571"><ele>107.32</ele><time>2026-04-25T12:40:05Z</time></trkpt><trkpt lat="59.0785291325" lon="30.0208542310"><ele>107.32</ele><time>2026-04-25T12:40:22Z</time></trkpt><trkpt lat="59.0784647595" lon="30.0208741799"><ele>107.32</ele><time>2026-04-25T12:40:41Z</time></trkpt><trkpt lat="59.0784551203" lon="30.0208806340"><ele>107.81</ele><time>2026-04-25T12:41:05Z</time></trkpt><trkpt lat="59.0784531925" lon="30.0208811369"><ele>106.36</ele><time>2026-04-25T12:41:29Z</time></trkpt><trkpt lat="59.0784423798" lon="30.0208858307"><ele>107.32</ele><time>2026-04-25T12:41:52Z</time></trkpt><trkpt lat="59.0784405358" lon="30.0208852440"><ele>107.81</ele><time>2026-04-25T12:42:15Z</time></trkpt><trkpt lat="59.0784383565" lon="30.0208667200"><ele>107.81</ele><time>2026-04-25T12:42:34Z</time></trkpt><trkpt lat="59.0784245264" lon="30.0208530575"><ele>108.29</ele><time>2026-04-25T12:42:55Z</time></trkpt><trkpt lat="59.0783928428" lon="30.0207856670"><ele>107.32</ele><time>2026-04-25T12:43:12Z</time></trkpt><trkpt lat="59.0783620812" lon="30.0205743592"><ele>107.81</ele><time>2026-04-25T12:43:35Z</time></trkpt><trkpt lat="59.0783281345" lon="30.0202764664"><ele>107.81</ele><time>2026-04-25T12:43:58Z</time></trkpt><trkpt lat="59.0782561339" lon="30.0199730415"><ele>107.81</ele><time>2026-04-25T12:44:21Z</time></trkpt><trkpt lat="59.0782586485" lon="30.0199541822"><ele>107.81</ele><time>2026-04-25T12:44:42Z</time></trkpt><trkpt lat="59.0782487579" lon="30.0199262705"><ele>107.81</ele><time>2026-04-25T12:44:57Z</time></trkpt><trkpt lat="59.0782404598" lon="30.0198728777"><ele>107.81</ele><time>2026-04-25T12:45:16Z</time></trkpt><trkpt lat="59.0782310721" lon="30.0198749732"><ele>108.29</ele><time>2026-04-25T12:45:33Z</time></trkpt><trkpt lat="59.0781753324" lon="30.0196858775"><ele>107.81</ele><time>2026-04-25T12:45:53Z</time></trkpt><trkpt lat="59.0781222750" lon="30.0194622483"><ele>108.29</ele><time>2026-04-25T12:46:19Z</time></trkpt><trkpt lat="59.0779596660" lon="30.0189207774"><ele>108.29</ele><time>2026-04-25T12:46:45Z</time></trkpt><trkpt lat="59.0778730810" lon="30.0186856650"><ele>108.77</ele><time>2026-04-25T12:47:04Z</time></trkpt><trkpt lat="59.0778607596" lon="30.0186800491"><ele>108.77</ele><time>2026-04-25T12:47:20Z</time></trkpt><trkpt lat="59.0778604243" lon="30.0186783727"><ele>108.77</ele><time>2026-04-25T12:47:48Z</time></trkpt><trkpt lat="59.0778605919" lon="30.0186833180"><ele>108.77</ele><time>2026-04-25T12:48:10Z</time></trkpt><trkpt lat="59.0777649544" lon="30.0186941307"><ele>108.77</ele><time>2026-04-25T12:48:25Z</time></trkpt><trkpt lat="59.0775484499" lon="30.0189485215"><ele>108.77</ele><time>2026-04-25T12:48:52Z</time></trkpt><trkpt lat="59.0774123278" lon="30.0189929456"><ele>108.77</ele><time>2026-04-25T12:49:11Z</time></trkpt><trkpt lat="59.0773134213" lon="30.0191101246"><ele>109.25</ele><time>2026-04-25T12:49:37Z</time></trkpt><trkpt lat="59.0773282573" lon="30.0191575661"><ele>109.25</ele><time>2026-04-25T12:50:27Z</time></trkpt><trkpt lat="59.0773414169" lon="30.0191600807"><ele>109.25</ele><time>2026-04-25T12:51:02Z</time></trkpt><trkpt lat="59.0773556661" lon="30.0191954523"><ele>108.77</ele><time>2026-04-25T12:51:21Z</time></trkpt><trkpt lat="59.0773846675" lon="30.0192749966"><ele>108.77</ele><time>2026-04-25T12:51:48Z</time></trkpt><trkpt lat="59.0773873497" lon="30.0192774273"><ele>108.77</ele><time>2026-04-25T12:52:11Z</time></trkpt><trkpt lat="59.0773663949" lon="30.0193007290"><ele>109.25</ele><time>2026-04-25T12:52:32Z</time></trkpt><trkpt lat="59.0773315262" lon="30.0193626713"><ele>109.25</ele><time>2026-04-25T12:52:52Z</time></trkpt><trkpt lat="59.0773352981" lon="30.0193677843"><ele>109.25</ele><time>2026-04-25T12:53:15Z</time></trkpt><trkpt lat="59.0773320291" lon="30.0193732325"><ele>109.73</ele><time>2026-04-25T12:53:43Z</time></trkpt><trkpt lat="59.0773435961" lon="30.0193707179"><ele>109.25</ele><time>2026-04-25T12:54:04Z</time></trkpt><trkpt lat="59.0773443505" lon="30.0193724781"><ele>109.25</ele><time>2026-04-25T12:54:26Z</time></trkpt><trkpt lat="59.0773486253" lon="30.0193743221"><ele>109.73</ele><time>2026-04-25T12:54:50Z</time></trkpt><trkpt lat="59.0773504693" lon="30.0193891581"><ele>109.73</ele><time>2026-04-25T12:55:19Z</time></trkpt><trkpt lat="59.0773559175" lon="30.0193945225"><ele>109.73</ele><time>2026-04-25T12:55:45Z</time></trkpt><trkpt lat="59.0773547441" lon="30.0193929300"><ele>109.73</ele><time>2026-04-25T12:56:07Z</time></trkpt><trkpt lat="59.0773569234" lon="30.0193989649"><ele>109.73</ele><time>2026-04-25T12:56:30Z</time></trkpt><trkpt lat="59.0773539897" lon="30.0194069277"><ele>110.21</ele><time>2026-04-25T12:56:53Z</time></trkpt><trkpt lat="59.0773600247" lon="30.0193983782"><ele>110.21</ele><time>2026-04-25T12:57:17Z</time></trkpt><trkpt lat="59.0773496311" lon="30.0193777587"><ele>110.21</ele><time>2026-04-25T12:57:40Z</time></trkpt><trkpt lat="59.0773487929" lon="30.0193755794"><ele>110.21</ele><time>2026-04-25T12:58:05Z</time></trkpt><trkpt lat="59.0773560852" lon="30.0193873979"><ele>110.21</ele><time>2026-04-25T12:58:29Z</time></trkpt><trkpt lat="59.0773572586" lon="30.0193896610"><ele>110.21</ele><time>2026-04-25T12:58:54Z</time></trkpt><trkpt lat="59.0773606952" lon="30.0193886552"><ele>110.21</ele><time>2026-04-25T12:59:16Z</time></trkpt><trkpt lat="59.0773630422" lon="30.0193821173"><ele>110.69</ele><time>2026-04-25T12:59:38Z</time></trkpt><trkpt lat="59.0773636289" lon="30.0193905830"><ele>110.69</ele><time>2026-04-25T13:00:01Z</time></trkpt><trkpt lat="59.0773719270" lon="30.0194178242"><ele>110.69</ele><time>2026-04-25T13:00:16Z</time></trkpt><trkpt lat="59.0773904510" lon="30.0194998831"><ele>110.21</ele><time>2026-04-25T13:00:37Z</time></trkpt><trkpt lat="59.0774965659" lon="30.0200164597"><ele>110.21</ele><time>2026-04-25T13:01:06Z</time></trkpt><trkpt lat="59.0775532275" lon="30.0204402488"><ele>110.21</ele><time>2026-04-25T13:01:36Z</time></trkpt><trkpt lat="59.0776277427" lon="30.0206376426"><ele>109.73</ele><time>2026-04-25T13:02:03Z</time></trkpt><trkpt lat="59.0776496194" lon="30.0207843259"><ele>110.21</ele><time>2026-04-25T13:02:24Z</time></trkpt><trkpt lat="59.0776607674" lon="30.0208291691"><ele>110.21</ele><time>2026-04-25T13:02:41Z</time></trkpt><trkpt lat="59.0776535589" lon="30.0208675582"><ele>110.21</ele><time>2026-04-25T13:03:01Z</time></trkpt><trkpt lat="59.0776467696" lon="30.0208866689"><ele>110.21</ele><time>2026-04-25T13:03:24Z</time></trkpt><trkpt lat="59.0776451770" lon="30.0208935421"><ele>110.21</ele><time>2026-04-25T13:03:50Z</time></trkpt><trkpt lat="59.0776080452" lon="30.0209278241"><ele>110.21</ele><time>2026-04-25T13:04:11Z</time></trkpt><trkpt lat="59.0775530599" lon="30.0210528821"><ele>110.21</ele><time>2026-04-25T13:04:31Z</time></trkpt><trkpt lat="59.0773888584" lon="30.0211618468"><ele>110.21</ele><time>2026-04-25T13:04:56Z</time></trkpt><trkpt lat="59.0773443505" lon="30.0211961288"><ele>110.21</ele><time>2026-04-25T13:05:15Z</time></trkpt><trkpt lat="59.0773191210" lon="30.0212079473"><ele>110.69</ele><time>2026-04-25T13:05:31Z</time></trkpt><trkpt lat="59.0772863477" lon="30.0212056842"><ele>110.21</ele><time>2026-04-25T13:05:49Z</time></trkpt><trkpt lat="59.0772676561" lon="30.0211849809"><ele>110.69</ele><time>2026-04-25T13:06:07Z</time></trkpt><trkpt lat="59.0772119164" lon="30.0211943686"><ele>110.69</ele><time>2026-04-25T13:06:26Z</time></trkpt><trkpt lat="59.0771221463" lon="30.0211738329"><ele>111.17</ele><time>2026-04-25T13:06:50Z</time></trkpt><trkpt lat="59.0771202184" lon="30.0211590808"><ele>110.21</ele><time>2026-04-25T13:07:15Z</time></trkpt><trkpt lat="59.0771051310" lon="30.0211391319"><ele>110.69</ele><time>2026-04-25T13:07:37Z</time></trkpt><trkpt lat="59.0770975873" lon="30.0211215299"><ele>110.69</ele><time>2026-04-25T13:07:55Z</time></trkpt><trkpt lat="59.0769107547" lon="30.0209001638"><ele>110.69</ele><time>2026-04-25T13:08:17Z</time></trkpt><trkpt lat="59.0768864471" lon="30.0208500400"><ele>111.17</ele><time>2026-04-25T13:08:34Z</time></trkpt><trkpt lat="59.0768915601" lon="30.0208391435"><ele>111.17</ele><time>2026-04-25T13:08:57Z</time></trkpt><trkpt lat="59.0769052226" lon="30.0207586773"><ele>111.17</ele><time>2026-04-25T13:09:16Z</time></trkpt><trkpt lat="59.0769223217" lon="30.0206336193"><ele>111.17</ele><time>2026-04-25T13:09:38Z</time></trkpt><trkpt lat="59.0769139398" lon="30.0205872674"><ele>111.17</ele><time>2026-04-25T13:09:55Z</time></trkpt><trkpt lat="59.0769102518" lon="30.0205444358"><ele>111.17</ele><time>2026-04-25T13:10:11Z</time></trkpt><trkpt lat="59.0769081563" lon="30.0204062182"><ele>111.17</ele><time>2026-04-25T13:10:33Z</time></trkpt><trkpt lat="59.0769090783" lon="30.0201464631"><ele>111.65</ele><time>2026-04-25T13:10:52Z</time></trkpt><trkpt lat="59.0769005287" lon="30.0200906396"><ele>111.65</ele><time>2026-04-25T13:11:06Z</time></trkpt><trkpt lat="59.0768624749" lon="30.0198368356"><ele>111.65</ele><time>2026-04-25T13:11:27Z</time></trkpt><trkpt lat="59.0767838527" lon="30.0192664471"><ele>111.65</ele><time>2026-04-25T13:11:55Z</time></trkpt><trkpt lat="59.0767783206" lon="30.0191550516"><ele>112.13</ele><time>2026-04-25T13:12:13Z</time></trkpt><trkpt lat="59.0767773986" lon="30.0191541295"><ele>112.13</ele><time>2026-04-25T13:12:40Z</time></trkpt><trkpt lat="59.0767720342" lon="30.0191484299"><ele>112.13</ele><time>2026-04-25T13:13:12Z</time></trkpt><trkpt lat="59.0766860358" lon="30.0191779342"><ele>112.13</ele><time>2026-04-25T13:13:37Z</time></trkpt><trkpt lat="59.0766536817" lon="30.0192049239"><ele>112.13</ele><time>2026-04-25T13:13:53Z</time></trkpt><trkpt lat="59.0766007919" lon="30.0192882400"><ele>112.13</ele><time>2026-04-25T13:14:13Z</time></trkpt><trkpt lat="59.0765054896" lon="30.0192996394"><ele>112.13</ele><time>2026-04-25T13:14:31Z</time></trkpt><trkpt lat="59.0764629934" lon="30.0193339214"><ele>112.13</ele><time>2026-04-25T13:14:47Z</time></trkpt><trkpt lat="59.0763639193" lon="30.0194164831"><ele>112.61</ele><time>2026-04-25T13:15:08Z</time></trkpt><trkpt lat="59.0763375163" lon="30.0194668584"><ele>112.13</ele><time>2026-04-25T13:15:50Z</time></trkpt><trkpt lat="59.0763725527" lon="30.0195670221"><ele>112.61</ele><time>2026-04-25T13:16:13Z</time></trkpt><trkpt lat="59.0764482412" lon="30.0199323893"><ele>112.61</ele><time>2026-04-25T13:16:48Z</time></trkpt><trkpt lat="59.0764211677" lon="30.0200868677"><ele>112.13</ele><time>2026-04-25T13:17:06Z</time></trkpt><trkpt lat="59.0764383506" lon="30.0202126801"><ele>112.13</ele><time>2026-04-25T13:17:30Z</time></trkpt><trkpt lat="59.0764333215" lon="30.0203254167"><ele>112.13</ele><time>2026-04-25T13:17:49Z</time></trkpt><trkpt lat="59.0764230955" lon="30.0205377303"><ele>112.13</ele><time>2026-04-25T13:18:10Z</time></trkpt><trkpt lat="59.0764144622" lon="30.0206332840"><ele>112.61</ele><time>2026-04-25T13:18:29Z</time></trkpt><trkpt lat="59.0764139593" lon="30.0207739323"><ele>112.61</ele><time>2026-04-25T13:18:52Z</time></trkpt><trkpt lat="59.0764425416" lon="30.0209165923"><ele>112.13</ele><time>2026-04-25T13:19:14Z</time></trkpt><trkpt lat="59.0764753986" lon="30.0209997408"><ele>112.61</ele><time>2026-04-25T13:19:36Z</time></trkpt><trkpt lat="59.0765069984" lon="30.0211591646"><ele>112.61</ele><time>2026-04-25T13:20:01Z</time></trkpt><trkpt lat="59.0765628219" lon="30.0213251263"><ele>112.61</ele><time>2026-04-25T13:20:24Z</time></trkpt><trkpt lat="59.0765971877" lon="30.0214314926"><ele>112.61</ele><time>2026-04-25T13:20:48Z</time></trkpt><trkpt lat="59.0765858721" lon="30.0214517768"><ele>112.61</ele><time>2026-04-25T13:21:15Z</time></trkpt><trkpt lat="59.0765697788" lon="30.0214750785"><ele>111.65</ele><time>2026-04-25T13:21:55Z</time></trkpt><trkpt lat="59.0765741374" lon="30.0214596558"><ele>112.13</ele><time>2026-04-25T13:22:19Z</time></trkpt><trkpt lat="59.0765774902" lon="30.0214527827"><ele>112.13</ele><time>2026-04-25T13:22:43Z</time></trkpt><trkpt lat="59.0765766520" lon="30.0214334205"><ele>112.13</ele><time>2026-04-25T13:23:07Z</time></trkpt><trkpt lat="59.0765799209" lon="30.0214182492"><ele>112.13</ele><time>2026-04-25T13:23:30Z</time></trkpt><trkpt lat="59.0765871294" lon="30.0214077719"><ele>112.13</ele><time>2026-04-25T13:23:54Z</time></trkpt><trkpt lat="59.0765923262" lon="30.0214035809"><ele>112.13</ele><time>2026-04-25T13:24:24Z</time></trkpt><trkpt lat="59.0765964333" lon="30.0213992223"><ele>111.65</ele><time>2026-04-25T13:24:48Z</time></trkpt><trkpt lat="59.0766003728" lon="30.0213919301"><ele>111.65</ele><time>2026-04-25T13:25:08Z</time></trkpt><trkpt lat="59.0766025521" lon="30.0213868171"><ele>111.65</ele><time>2026-04-25T13:25:32Z</time></trkpt><trkpt lat="59.0766040608" lon="30.0213818718"><ele>112.13</ele><time>2026-04-25T13:25:57Z</time></trkpt><trkpt lat="59.0766124427" lon="30.0213862304"><ele>112.13</ele><time>2026-04-25T13:26:18Z</time></trkpt><trkpt lat="59.0766144544" lon="30.0214108732"><ele>112.61</ele><time>2026-04-25T13:26:55Z</time></trkpt><trkpt lat="59.0766077489" lon="30.0214125495"><ele>112.61</ele><time>2026-04-25T13:27:26Z</time></trkpt><trkpt lat="59.0766139515" lon="30.0214183331"><ele>112.61</ele><time>2026-04-25T13:27:49Z</time></trkpt><trkpt lat="59.0766168851" lon="30.0214275531"><ele>112.61</ele><time>2026-04-25T13:28:22Z</time></trkpt><trkpt lat="59.0766133647" lon="30.0214493461"><ele>112.61</ele><time>2026-04-25T13:28:46Z</time></trkpt><trkpt lat="59.0766126942" lon="30.0217776652"><ele>112.61</ele><time>2026-04-25T13:29:09Z</time></trkpt><trkpt lat="59.0765843634" lon="30.0219331495"><ele>112.61</ele><time>2026-04-25T13:29:37Z</time></trkpt><trkpt lat="59.0765573736" lon="30.0219581276"><ele>112.61</ele><time>2026-04-25T13:30:14Z</time></trkpt><trkpt lat="59.0763512626" lon="30.0220735464"><ele>112.61</ele><time>2026-04-25T13:30:41Z</time></trkpt><trkpt lat="59.0762443934" lon="30.0221029669"><ele>113.09</ele><time>2026-04-25T13:31:03Z</time></trkpt><trkpt lat="59.0760883223" lon="30.0221244246"><ele>113.57</ele><time>2026-04-25T13:31:21Z</time></trkpt><trkpt lat="59.0759889968" lon="30.0221882947"><ele>113.57</ele><time>2026-04-25T13:31:38Z</time></trkpt><trkpt lat="59.0758730751" lon="30.0222179666"><ele>113.57</ele><time>2026-04-25T13:31:53Z</time></trkpt><trkpt lat="59.0757690556" lon="30.0222451240"><ele>113.57</ele><time>2026-04-25T13:32:10Z</time></trkpt><trkpt lat="59.0756778605" lon="30.0222690962"><ele>113.57</ele><time>2026-04-25T13:32:25Z</time></trkpt><trkpt lat="59.0755840670" lon="30.0222971756"><ele>113.57</ele><time>2026-04-25T13:32:43Z</time></trkpt><trkpt lat="59.0754797962" lon="30.0223874487"><ele>113.57</ele><time>2026-04-25T13:33:00Z</time></trkpt><trkpt lat="59.0753281675" lon="30.0224202219"><ele>114.05</ele><time>2026-04-25T13:33:18Z</time></trkpt><trkpt lat="59.0752577595" lon="30.0224297773"><ele>114.05</ele><time>2026-04-25T13:33:26Z</time></trkpt><trkpt lat="59.0751602780" lon="30.0224863552"><ele>114.05</ele><time>2026-04-25T13:33:38Z</time></trkpt><trkpt lat="59.0750582702" lon="30.0225383230"><ele>114.05</ele><time>2026-04-25T13:33:56Z</time></trkpt><trkpt lat="59.0749572683" lon="30.0225921348"><ele>114.05</ele><time>2026-04-25T13:34:15Z</time></trkpt><trkpt lat="59.0748879500" lon="30.0225804839"><ele>114.05</ele><time>2026-04-25T13:34:32Z</time></trkpt><trkpt lat="59.0748495609" lon="30.0226146821"><ele>114.05</ele><time>2026-04-25T13:34:47Z</time></trkpt><trkpt lat="59.0748239961" lon="30.0226270873"><ele>115.01</ele><time>2026-04-25T13:35:19Z</time></trkpt><trkpt lat="59.0747870319" lon="30.0227100682"><ele>114.53</ele><time>2026-04-25T13:36:10Z</time></trkpt><trkpt lat="59.0746890474" lon="30.0228179432"><ele>115.01</ele><time>2026-04-25T13:36:28Z</time></trkpt><trkpt lat="59.0745594632" lon="30.0228348747"><ele>115.01</ele><time>2026-04-25T13:36:44Z</time></trkpt><trkpt lat="59.0744685195" lon="30.0227890257"><ele>115.01</ele><time>2026-04-25T13:37:00Z</time></trkpt><trkpt lat="59.0743777435" lon="30.0228408258"><ele>115.01</ele><time>2026-04-25T13:37:16Z</time></trkpt><trkpt lat="59.0742513444" lon="30.0229088869"><ele>115.01</ele><time>2026-04-25T13:37:37Z</time></trkpt><trkpt lat="59.0741029847" lon="30.0229011755"><ele>115.01</ele><time>2026-04-25T13:37:56Z</time></trkpt><trkpt lat="59.0740161482" lon="30.0229262374"><ele>115.01</ele><time>2026-04-25T13:38:12Z</time></trkpt><trkpt lat="59.0739297308" lon="30.0229673926"><ele>115.01</ele><time>2026-04-25T13:38:25Z</time></trkpt><trkpt lat="59.0738515276" lon="30.0230908580"><ele>115.01</ele><time>2026-04-25T13:38:39Z</time></trkpt><trkpt lat="59.0737232845" lon="30.0231028441"><ele>115.01</ele><time>2026-04-25T13:38:53Z</time></trkpt><trkpt lat="59.0736557264" lon="30.0231002457"><ele>115.01</ele><time>2026-04-25T13:39:00Z</time></trkpt><trkpt lat="59.0735524613" lon="30.0230639521"><ele>115.50</ele><time>2026-04-25T13:39:12Z</time></trkpt><trkpt lat="59.0735440794" lon="30.0230680592"><ele>115.50</ele><time>2026-04-25T13:39:13Z</time></trkpt><trkpt lat="59.0734501183" lon="30.0231081247"><ele>115.50</ele><time>2026-04-25T13:39:25Z</time></trkpt><trkpt lat="59.0733569954" lon="30.0231473520"><ele>115.50</ele><time>2026-04-25T13:39:39Z</time></trkpt><trkpt lat="59.0733075421" lon="30.0231735874"><ele>115.50</ele><time>2026-04-25T13:39:56Z</time></trkpt><trkpt lat="59.0732940473" lon="30.0231632777"><ele>115.50</ele><time>2026-04-25T13:39:59Z</time></trkpt><trkpt lat="59.0732374694" lon="30.0232749246"><ele>115.50</ele><time>2026-04-25T13:40:12Z</time></trkpt><trkpt lat="59.0732021816" lon="30.0233789440"><ele>115.50</ele><time>2026-04-25T13:40:27Z</time></trkpt><trkpt lat="59.0731942188" lon="30.0234238710"><ele>115.50</ele><time>2026-04-25T13:40:56Z</time></trkpt><trkpt lat="59.0731897764" lon="30.0234205183"><ele>115.50</ele><time>2026-04-25T13:41:26Z</time></trkpt><trkpt lat="59.0731830709" lon="30.0234753359"><ele>115.50</ele><time>2026-04-25T13:42:34Z</time></trkpt><trkpt lat="59.0731842443" lon="30.0237296429"><ele>115.50</ele><time>2026-04-25T13:42:59Z</time></trkpt><trkpt lat="59.0731724259" lon="30.0238796789"><ele>115.50</ele><time>2026-04-25T13:43:18Z</time></trkpt><trkpt lat="59.0731656365" lon="30.0240615662"><ele>115.50</ele><time>2026-04-25T13:43:39Z</time></trkpt><trkpt lat="59.0731603559" lon="30.0243018754"><ele>115.50</ele><time>2026-04-25T13:43:57Z</time></trkpt><trkpt lat="59.0731648821" lon="30.0244391710"><ele>115.50</ele><time>2026-04-25T13:44:21Z</time></trkpt><trkpt lat="59.0732665546" lon="30.0246267579"><ele>115.50</ele><time>2026-04-25T13:44:37Z</time></trkpt><trkpt lat="59.0732949693" lon="30.0246384926"><ele>115.50</ele><time>2026-04-25T13:44:55Z</time></trkpt><trkpt lat="59.0732972324" lon="30.0246504787"><ele>115.50</ele><time>2026-04-25T13:45:32Z</time></trkpt><trkpt lat="59.0733340289" lon="30.0248176977"><ele>115.50</ele><time>2026-04-25T13:45:53Z</time></trkpt><trkpt lat="59.0733915288" lon="30.0249646325"><ele>115.50</ele><time>2026-04-25T13:46:13Z</time></trkpt><trkpt lat="59.0734082926" lon="30.0254205242"><ele>115.50</ele><time>2026-04-25T13:46:41Z</time></trkpt><trkpt lat="59.0734113939" lon="30.0257514417"><ele>115.98</ele><time>2026-04-25T13:47:09Z</time></trkpt><trkpt lat="59.0733178519" lon="30.0262354966"><ele>115.98</ele><time>2026-04-25T13:47:34Z</time></trkpt><trkpt lat="59.0732745174" lon="30.0263784919"><ele>115.50</ele><time>2026-04-25T13:47:59Z</time></trkpt><trkpt lat="59.0732794628" lon="30.0263391808"><ele>115.98</ele><time>2026-04-25T13:48:33Z</time></trkpt><trkpt lat="59.0732803848" lon="30.0263057370"><ele>115.98</ele><time>2026-04-25T13:49:11Z</time></trkpt><trkpt lat="59.0732896887" lon="30.0263033900"><ele>115.98</ele><time>2026-04-25T13:49:46Z</time></trkpt><trkpt lat="59.0732846595" lon="30.0263123587"><ele>115.98</ele><time>2026-04-25T13:50:21Z</time></trkpt><trkpt lat="59.0732594300" lon="30.0263095926"><ele>116.46</ele><time>2026-04-25T13:50:59Z</time></trkpt><trkpt lat="59.0732542332" lon="30.0263306312"><ele>115.98</ele><time>2026-04-25T13:51:30Z</time></trkpt><trkpt lat="59.0732548200" lon="30.0263361633"><ele>116.46</ele><time>2026-04-25T13:51:58Z</time></trkpt><trkpt lat="59.0732457675" lon="30.0263543520"><ele>116.46</ele><time>2026-04-25T13:52:36Z</time></trkpt><trkpt lat="59.0732388943" lon="30.0263803359"><ele>115.98</ele><time>2026-04-25T13:53:12Z</time></trkpt><trkpt lat="59.0732404869" lon="30.0264039729"><ele>115.98</ele><time>2026-04-25T13:53:40Z</time></trkpt><trkpt lat="59.0732675605" lon="30.0263750553"><ele>116.46</ele><time>2026-04-25T13:54:07Z</time></trkpt><trkpt lat="59.0733005852" lon="30.0263699424"><ele>116.94</ele><time>2026-04-25T13:54:40Z</time></trkpt><trkpt lat="59.0733090509" lon="30.0264183898"><ele>116.94</ele><time>2026-04-25T13:55:09Z</time></trkpt><trkpt lat="59.0733176842" lon="30.0264501572"><ele>116.94</ele><time>2026-04-25T13:55:47Z</time></trkpt><trkpt lat="59.0733343642" lon="30.0264686812"><ele>117.42</ele><time>2026-04-25T13:56:24Z</time></trkpt><trkpt lat="59.0733434167" lon="30.0264793262"><ele>117.42</ele><time>2026-04-25T13:56:53Z</time></trkpt><trkpt lat="59.0733326878" lon="30.0265061483"><ele>117.42</ele><time>2026-04-25T13:57:30Z</time></trkpt><trkpt lat="59.0733396448" lon="30.0265054777"><ele>117.42</ele><time>2026-04-25T13:58:03Z</time></trkpt><trkpt lat="59.0733467694" lon="30.0265107583"><ele>116.94</ele><time>2026-04-25T13:58:33Z</time></trkpt><trkpt lat="59.0733436681" lon="30.0265076570"><ele>116.94</ele><time>2026-04-25T13:59:04Z</time></trkpt><trkpt lat="59.0733218752" lon="30.0264950842"><ele>117.90</ele><time>2026-04-25T13:59:33Z</time></trkpt><trkpt lat="59.0733039379" lon="30.0264739618"><ele>117.90</ele><time>2026-04-25T14:00:17Z</time></trkpt><trkpt lat="59.0732699912" lon="30.0264543481"><ele>117.90</ele><time>2026-04-25T14:00:52Z</time></trkpt><trkpt lat="59.0732682310" lon="30.0264505763"><ele>117.42</ele><time>2026-04-25T14:01:23Z</time></trkpt><trkpt lat="59.0732711647" lon="30.0264415238"><ele>116.94</ele><time>2026-04-25T14:01:49Z</time></trkpt><trkpt lat="59.0732757747" lon="30.0264195632"><ele>117.42</ele><time>2026-04-25T14:02:15Z</time></trkpt><trkpt lat="59.0732764453" lon="30.0263910647"><ele>118.38</ele><time>2026-04-25T14:02:51Z</time></trkpt><trkpt lat="59.0732904430" lon="30.0263717864"><ele>117.90</ele><time>2026-04-25T14:03:25Z</time></trkpt><trkpt lat="59.0732918680" lon="30.0263804197"><ele>117.90</ele><time>2026-04-25T14:03:49Z</time></trkpt><trkpt lat="59.0733012557" lon="30.0264283642"><ele>117.90</ele><time>2026-04-25T14:04:24Z</time></trkpt><trkpt lat="59.0732967295" lon="30.0264279451"><ele>117.90</ele><time>2026-04-25T14:04:53Z</time></trkpt><trkpt lat="59.0733025968" lon="30.0264271908"><ele>117.90</ele><time>2026-04-25T14:05:20Z</time></trkpt><trkpt lat="59.0733038541" lon="30.0264110975"><ele>117.90</ele><time>2026-04-25T14:05:46Z</time></trkpt><trkpt lat="59.0733047761" lon="30.0263967644"><ele>117.90</ele><time>2026-04-25T14:06:14Z</time></trkpt><trkpt lat="59.0733081289" lon="30.0263955910"><ele>117.90</ele><time>2026-04-25T14:06:40Z</time></trkpt><trkpt lat="59.0733060334" lon="30.0264094211"><ele>117.90</ele><time>2026-04-25T14:07:06Z</time></trkpt><trkpt lat="59.0733190253" lon="30.0264423620"><ele>117.90</ele><time>2026-04-25T14:07:33Z</time></trkpt><trkpt lat="59.0733145829" lon="30.0267004408"><ele>117.90</ele><time>2026-04-25T14:07:58Z</time></trkpt><trkpt lat="59.0733758546" lon="30.0268398318"><ele>118.38</ele><time>2026-04-25T14:08:17Z</time></trkpt><trkpt lat="59.0733804647" lon="30.0268389937"><ele>118.38</ele><time>2026-04-25T14:08:34Z</time></trkpt><trkpt lat="59.0733873378" lon="30.0268369820"><ele>117.90</ele><time>2026-04-25T14:08:56Z</time></trkpt><trkpt lat="59.0733910259" lon="30.0268315338"><ele>117.42</ele><time>2026-04-25T14:09:19Z</time></trkpt><trkpt lat="59.0733954683" lon="30.0268340483"><ele>117.90</ele><time>2026-04-25T14:09:48Z</time></trkpt><trkpt lat="59.0733964741" lon="30.0268313661"><ele>117.90</ele><time>2026-04-25T14:10:13Z</time></trkpt><trkpt lat="59.0734018385" lon="30.0268198829"><ele>117.90</ele><time>2026-04-25T14:10:40Z</time></trkpt><trkpt lat="59.0734063648" lon="30.0268089864"><ele>117.90</ele><time>2026-04-25T14:11:03Z</time></trkpt><trkpt lat="59.0734110586" lon="30.0268035382"><ele>117.42</ele><time>2026-04-25T14:11:23Z</time></trkpt><trkpt lat="59.0734162554" lon="30.0267886184"><ele>118.38</ele><time>2026-04-25T14:11:47Z</time></trkpt><trkpt lat="59.0733896848" lon="30.0268686656"><ele>118.38</ele><time>2026-04-25T14:12:13Z</time></trkpt><trkpt lat="59.0733460989" lon="30.0269831624"><ele>118.38</ele><time>2026-04-25T14:12:56Z</time></trkpt><trkpt lat="59.0733030997" lon="30.0270645507"><ele>117.90</ele><time>2026-04-25T14:14:03Z</time></trkpt><trkpt lat="59.0733108949" lon="30.0270553306"><ele>117.90</ele><time>2026-04-25T14:14:32Z</time></trkpt><trkpt lat="59.0733134933" lon="30.0270427577"><ele>118.38</ele><time>2026-04-25T14:15:00Z</time></trkpt><trkpt lat="59.0733209532" lon="30.0270401593"><ele>118.38</ele><time>2026-04-25T14:15:30Z</time></trkpt><trkpt lat="59.0733241383" lon="30.0270347949"><ele>118.38</ele><time>2026-04-25T14:16:01Z</time></trkpt><trkpt lat="59.0733267367" lon="30.0270257425"><ele>118.38</ele><time>2026-04-25T14:16:27Z</time></trkpt><trkpt lat="59.0733333584" lon="30.0270151813"><ele>118.38</ele><time>2026-04-25T14:16:52Z</time></trkpt><trkpt lat="59.0733382199" lon="30.0270021893"><ele>118.38</ele><time>2026-04-25T14:17:18Z</time></trkpt><trkpt lat="59.0733410697" lon="30.0269924663"><ele>118.38</ele><time>2026-04-25T14:17:44Z</time></trkpt><trkpt lat="59.0733473562" lon="30.0269822404"><ele>118.38</ele><time>2026-04-25T14:18:17Z</time></trkpt><trkpt lat="59.0733466856" lon="30.0269785523"><ele>118.38</ele><time>2026-04-25T14:18:58Z</time></trkpt><trkpt lat="59.0733345319" lon="30.0269874372"><ele>118.38</ele><time>2026-04-25T14:19:35Z</time></trkpt><trkpt lat="59.0733355377" lon="30.0269757863"><ele>118.38</ele><time>2026-04-25T14:20:10Z</time></trkpt><trkpt lat="59.0733338613" lon="30.0269701704"><ele>118.86</ele><time>2026-04-25T14:20:44Z</time></trkpt><trkpt lat="59.0733330231" lon="30.0269719306"><ele>118.86</ele><time>2026-04-25T14:21:26Z</time></trkpt><trkpt lat="59.0733373817" lon="30.0269691646"><ele>118.86</ele><time>2026-04-25T14:22:01Z</time></trkpt><trkpt lat="59.0733297542" lon="30.0269821566"><ele>118.86</ele><time>2026-04-25T14:22:35Z</time></trkpt><trkpt lat="59.0733286645" lon="30.0269792229"><ele>118.86</ele><time>2026-04-25T14:23:05Z</time></trkpt><trkpt lat="59.0733316820" lon="30.0269835815"><ele>118.86</ele><time>2026-04-25T14:23:31Z</time></trkpt><trkpt lat="59.0733354539" lon="30.0269743614"><ele>119.34</ele><time>2026-04-25T14:23:58Z</time></trkpt><trkpt lat="59.0733426623" lon="30.0269699190"><ele>119.34</ele><time>2026-04-25T14:24:21Z</time></trkpt><trkpt lat="59.0733422432" lon="30.0269647222"><ele>119.34</ele><time>2026-04-25T14:24:54Z</time></trkpt><trkpt lat="59.0733357891" lon="30.0269730203"><ele>119.34</ele><time>2026-04-25T14:25:26Z</time></trkpt><trkpt lat="59.0733367950" lon="30.0269880239"><ele>119.34</ele><time>2026-04-25T14:25:56Z</time></trkpt><trkpt lat="59.0733363759" lon="30.0269801449"><ele>119.34</ele><time>2026-04-25T14:26:29Z</time></trkpt><trkpt lat="59.0733411536" lon="30.0269884430"><ele>119.34</ele><time>2026-04-25T14:26:52Z</time></trkpt><trkpt lat="59.0733586717" lon="30.0269924663"><ele>119.34</ele><time>2026-04-25T14:27:20Z</time></trkpt><trkpt lat="59.0733600967" lon="30.0269764569"><ele>119.34</ele><time>2026-04-25T14:27:50Z</time></trkpt><trkpt lat="59.0733658802" lon="30.0269685779"><ele>119.34</ele><time>2026-04-25T14:28:15Z</time></trkpt><trkpt lat="59.0733556543" lon="30.0269652251"><ele>119.82</ele><time>2026-04-25T14:28:49Z</time></trkpt><trkpt lat="59.0733541455" lon="30.0269549992"><ele>119.82</ele><time>2026-04-25T14:29:13Z</time></trkpt><trkpt lat="59.0733535588" lon="30.0269518979"><ele>119.82</ele><time>2026-04-25T14:29:34Z</time></trkpt><trkpt lat="59.0733754355" lon="30.0269620400"><ele>119.82</ele><time>2026-04-25T14:30:02Z</time></trkpt><trkpt lat="59.0733700711" lon="30.0269598607"><ele>119.82</ele><time>2026-04-25T14:30:29Z</time></trkpt><trkpt lat="59.0733786207" lon="30.0269579329"><ele>119.82</ele><time>2026-04-25T14:30:49Z</time></trkpt><trkpt lat="59.0733878408" lon="30.0269465335"><ele>119.82</ele><time>2026-04-25T14:31:12Z</time></trkpt><trkpt lat="59.0733913612" lon="30.0269406661"><ele>119.82</ele><time>2026-04-25T14:31:33Z</time></trkpt><trkpt lat="59.0733758546" lon="30.0269599445"><ele>119.82</ele><time>2026-04-25T14:32:02Z</time></trkpt><trkpt lat="59.0733723342" lon="30.0270831585"><ele>120.30</ele><time>2026-04-25T14:32:30Z</time></trkpt><trkpt lat="59.0733046923" lon="30.0272003375"><ele>120.30</ele><time>2026-04-25T14:32:55Z</time></trkpt><trkpt lat="59.0732235555" lon="30.0273106433"><ele>120.78</ele><time>2026-04-25T14:33:16Z</time></trkpt><trkpt lat="59.0731526446" lon="30.0273917802"><ele>120.30</ele><time>2026-04-25T14:33:21Z</time></trkpt><trkpt lat="59.0730616171" lon="30.0275707338"><ele>120.30</ele><time>2026-04-25T14:33:39Z</time></trkpt><trkpt lat="59.0729394928" lon="30.0276680477"><ele>120.78</ele><time>2026-04-25T14:33:59Z</time></trkpt><trkpt lat="59.0729002655" lon="30.0276876613"><ele>120.78</ele><time>2026-04-25T14:34:02Z</time></trkpt><trkpt lat="59.0726718586" lon="30.0277909264"><ele>120.30</ele><time>2026-04-25T14:34:17Z</time></trkpt><trkpt lat="59.0724534262" lon="30.0279240310"><ele>120.30</ele><time>2026-04-25T14:34:35Z</time></trkpt><trkpt lat="59.0723009594" lon="30.0279984623"><ele>119.82</ele><time>2026-04-25T14:34:50Z</time></trkpt><trkpt lat="59.0721126180" lon="30.0281044934"><ele>119.82</ele><time>2026-04-25T14:35:09Z</time></trkpt><trkpt lat="59.0718947724" lon="30.0281074271"><ele>120.30</ele><time>2026-04-25T14:35:29Z</time></trkpt><trkpt lat="59.0716827940" lon="30.0281574670"><ele>120.30</ele><time>2026-04-25T14:35:54Z</time></trkpt><trkpt lat="59.0714378748" lon="30.0281799305"><ele>120.30</ele><time>2026-04-25T14:36:18Z</time></trkpt><trkpt lat="59.0711037721" lon="30.0283265300"><ele>120.78</ele><time>2026-04-25T14:36:47Z</time></trkpt><trkpt lat="59.0708100703" lon="30.0284319744"><ele>120.78</ele><time>2026-04-25T14:37:10Z</time></trkpt><trkpt lat="59.0705032926" lon="30.0285548531"><ele>120.78</ele><time>2026-04-25T14:37:34Z</time></trkpt><trkpt lat="59.0702204872" lon="30.0286355708"><ele>120.78</ele><time>2026-04-25T14:37:58Z</time></trkpt><trkpt lat="59.0699080937" lon="30.0286844373"><ele>121.26</ele><time>2026-04-25T14:38:25Z</time></trkpt><trkpt lat="59.0696420521" lon="30.0288034603"><ele>121.26</ele><time>2026-04-25T14:38:48Z</time></trkpt><trkpt lat="59.0693460871" lon="30.0289251655"><ele>121.26</ele><time>2026-04-25T14:39:10Z</time></trkpt><trkpt lat="59.0691940393" lon="30.0289873593"><ele>120.78</ele><time>2026-04-25T14:39:24Z</time></trkpt><trkpt lat="59.0689222980" lon="30.0290613715"><ele>120.78</ele><time>2026-04-25T14:39:48Z</time></trkpt><trkpt lat="59.0686703380" lon="30.0291719288"><ele>120.78</ele><time>2026-04-25T14:40:08Z</time></trkpt><trkpt lat="59.0684451163" lon="30.0292552449"><ele>120.78</ele><time>2026-04-25T14:40:28Z</time></trkpt><trkpt lat="59.0681195632" lon="30.0293207914"><ele>120.78</ele><time>2026-04-25T14:40:56Z</time></trkpt><trkpt lat="59.0677926689" lon="30.0293892715"><ele>120.78</ele><time>2026-04-25T14:41:23Z</time></trkpt><trkpt lat="59.0676824469" lon="30.0294192787"><ele>120.78</ele><time>2026-04-25T14:41:43Z</time></trkpt><trkpt lat="59.0674179979" lon="30.0295828935"><ele>120.78</ele><time>2026-04-25T14:42:05Z</time></trkpt><trkpt lat="59.0671423171" lon="30.0297117233"><ele>120.78</ele><time>2026-04-25T14:42:28Z</time></trkpt><trkpt lat="59.0668711625" lon="30.0296947919"><ele>120.78</ele><time>2026-04-25T14:42:51Z</time></trkpt><trkpt lat="59.0666413307" lon="30.0298218615"><ele>120.78</ele><time>2026-04-25T14:43:14Z</time></trkpt><trkpt lat="59.0663595311" lon="30.0298840553"><ele>120.30</ele><time>2026-04-25T14:43:40Z</time></trkpt><trkpt lat="59.0661833435" lon="30.0299326703"><ele>120.30</ele><time>2026-04-25T14:44:03Z</time></trkpt><trkpt lat="59.0660235845" lon="30.0300188363"><ele>120.78</ele><time>2026-04-25T14:44:23Z</time></trkpt><trkpt lat="59.0658606403" lon="30.0300731510"><ele>120.78</ele><time>2026-04-25T14:44:43Z</time></trkpt><trkpt lat="59.0657264460" lon="30.0301035773"><ele>120.78</ele><time>2026-04-25T14:45:02Z</time></trkpt><trkpt lat="59.0655139647" lon="30.0302297249"><ele>120.78</ele><time>2026-04-25T14:45:20Z</time></trkpt><trkpt lat="59.0654141363" lon="30.0302655995"><ele>120.78</ele><time>2026-04-25T14:45:40Z</time></trkpt><trkpt lat="59.0651042573" lon="30.0304085948"><ele>120.78</ele><time>2026-04-25T14:45:58Z</time></trkpt><trkpt lat="59.0649023373" lon="30.0304261968"><ele>120.78</ele><time>2026-04-25T14:46:12Z</time></trkpt><trkpt lat="59.0646559931" lon="30.0305041485"><ele>120.30</ele><time>2026-04-25T14:46:29Z</time></trkpt><trkpt lat="59.0646300931" lon="30.0305145420"><ele>120.30</ele><time>2026-04-25T14:46:31Z</time></trkpt><trkpt lat="59.0645652171" lon="30.0305199903"><ele>120.30</ele><time>2026-04-25T14:46:37Z</time></trkpt><trkpt lat="59.0642962418" lon="30.0306857843"><ele>119.82</ele><time>2026-04-25T14:47:00Z</time></trkpt><trkpt lat="59.0640771389" lon="30.0307520851"><ele>119.82</ele><time>2026-04-25T14:47:20Z</time></trkpt><trkpt lat="59.0639203973" lon="30.0307239220"><ele>119.82</ele><time>2026-04-25T14:47:44Z</time></trkpt><trkpt lat="59.0638662502" lon="30.0306388456"><ele>120.30</ele><time>2026-04-25T14:48:08Z</time></trkpt><trkpt lat="59.0637634881" lon="30.0306448806"><ele>120.30</ele><time>2026-04-25T14:48:31Z</time></trkpt><trkpt lat="59.0636292938" lon="30.0306084193"><ele>119.82</ele><time>2026-04-25T14:48:53Z</time></trkpt><trkpt lat="59.0635108575" lon="30.0307702739"><ele>121.26</ele><time>2026-04-25T14:49:10Z</time></trkpt><trkpt lat="59.0635029785" lon="30.0307848584"><ele>121.26</ele><time>2026-04-25T14:49:11Z</time></trkpt><trkpt lat="59.0633994620" lon="30.0309165381"><ele>120.78</ele><time>2026-04-25T14:49:19Z</time></trkpt><trkpt lat="59.0633215941" lon="30.0309591182"><ele>120.78</ele><time>2026-04-25T14:49:36Z</time></trkpt><trkpt lat="59.0633157268" lon="30.0309458748"><ele>120.78</ele><time>2026-04-25T14:50:03Z</time></trkpt><trkpt lat="59.0633177385" lon="30.0309563521"><ele>120.78</ele><time>2026-04-25T14:50:24Z</time></trkpt><trkpt lat="59.0633145534" lon="30.0309464615"><ele>120.78</ele><time>2026-04-25T14:50:44Z</time></trkpt></trkseg></trk></gpx>